<?xml version="1.0" encoding="UTF-8" standalone="no" ?>
<gpx xmlns="http://www.topografix.com/GPX/1/1" xmlns:xsi="http://www.w3.org/2001/XMLSchema-instance" xsi:schemaLocation="http://www.topografix.com/GPX/1/1 http://www.topografix.com/GPX/1/1/gpx.xsd" version="1.1" creator="VisuGPX - https://www.visugpx.com">
  <metadata>
    <name>Dimanche 27/11/2011</name>
    <desc><![CDATA[Gorges d\'Enval et descente du Renard.]]></desc>
  </metadata>
  <trk>
    <name><![CDATA[2011-11-27-07-10-38 on GPSies.com]]></name>
    <trkseg>
      <trkpt lat="45.90522" lon="3.05874">
        <ele>452</ele>
        <time>2011-11-27T07:10:38Z</time>
      </trkpt>
      <trkpt lat="45.90518" lon="3.05873">
        <ele>452</ele>
        <time>2011-11-27T07:10:54Z</time>
      </trkpt>
      <trkpt lat="45.9051" lon="3.05872">
        <ele>453</ele>
        <time>2011-11-27T07:11:03Z</time>
      </trkpt>
      <trkpt lat="45.90506" lon="3.05868">
        <ele>453</ele>
        <time>2011-11-27T07:11:07Z</time>
      </trkpt>
      <trkpt lat="45.90502" lon="3.05867">
        <ele>453</ele>
        <time>2011-11-27T07:11:11Z</time>
      </trkpt>
      <trkpt lat="45.90499" lon="3.05865">
        <ele>460</ele>
        <time>2011-11-27T07:11:14Z</time>
      </trkpt>
      <trkpt lat="45.90483" lon="3.05854">
        <ele>460</ele>
        <time>2011-11-27T07:11:30Z</time>
      </trkpt>
      <trkpt lat="45.90479" lon="3.0585">
        <ele>460</ele>
        <time>2011-11-27T07:11:35Z</time>
      </trkpt>
      <trkpt lat="45.90465" lon="3.05842">
        <ele>461</ele>
        <time>2011-11-27T07:11:52Z</time>
      </trkpt>
      <trkpt lat="45.90447" lon="3.05831">
        <ele>460</ele>
        <time>2011-11-27T07:12:22Z</time>
      </trkpt>
      <trkpt lat="45.90411" lon="3.05813">
        <ele>465</ele>
        <time>2011-11-27T07:12:44Z</time>
      </trkpt>
      <trkpt lat="45.90385" lon="3.05806">
        <ele>466</ele>
        <time>2011-11-27T07:12:59Z</time>
      </trkpt>
      <trkpt lat="45.90358" lon="3.05802">
        <ele>467</ele>
        <time>2011-11-27T07:13:15Z</time>
      </trkpt>
      <trkpt lat="45.90333" lon="3.058">
        <ele>470</ele>
        <time>2011-11-27T07:13:30Z</time>
      </trkpt>
      <trkpt lat="45.90306" lon="3.05803">
        <ele>470</ele>
        <time>2011-11-27T07:13:47Z</time>
      </trkpt>
      <trkpt lat="45.90271" lon="3.05812">
        <ele>471</ele>
        <time>2011-11-27T07:14:08Z</time>
      </trkpt>
      <trkpt lat="45.90236" lon="3.05822">
        <ele>473</ele>
        <time>2011-11-27T07:14:27Z</time>
      </trkpt>
      <trkpt lat="45.90193" lon="3.05834">
        <ele>476</ele>
        <time>2011-11-27T07:14:47Z</time>
      </trkpt>
      <trkpt lat="45.90149" lon="3.0582">
        <ele>476</ele>
        <time>2011-11-27T07:15:06Z</time>
      </trkpt>
      <trkpt lat="45.90112" lon="3.05816">
        <ele>476</ele>
        <time>2011-11-27T07:15:23Z</time>
      </trkpt>
      <trkpt lat="45.90097" lon="3.05829">
        <ele>476</ele>
        <time>2011-11-27T07:15:37Z</time>
      </trkpt>
      <trkpt lat="45.90092" lon="3.05836">
        <ele>476</ele>
        <time>2011-11-27T07:15:55Z</time>
      </trkpt>
      <trkpt lat="45.90089" lon="3.05838">
        <ele>476</ele>
        <time>2011-11-27T07:15:57Z</time>
      </trkpt>
      <trkpt lat="45.90051" lon="3.05821">
        <ele>474</ele>
        <time>2011-11-27T07:16:13Z</time>
      </trkpt>
      <trkpt lat="45.90041" lon="3.05808">
        <ele>473</ele>
        <time>2011-11-27T07:16:16Z</time>
      </trkpt>
      <trkpt lat="45.90031" lon="3.05782">
        <ele>473</ele>
        <time>2011-11-27T07:16:21Z</time>
      </trkpt>
      <trkpt lat="45.90025" lon="3.057">
        <ele>474</ele>
        <time>2011-11-27T07:16:36Z</time>
      </trkpt>
      <trkpt lat="45.90034" lon="3.05661">
        <ele>472</ele>
        <time>2011-11-27T07:16:41Z</time>
      </trkpt>
      <trkpt lat="45.90037" lon="3.05615">
        <ele>471</ele>
        <time>2011-11-27T07:16:45Z</time>
      </trkpt>
      <trkpt lat="45.90023" lon="3.05454">
        <ele>461</ele>
        <time>2011-11-27T07:16:56Z</time>
      </trkpt>
      <trkpt lat="45.8999" lon="3.05409">
        <ele>461</ele>
        <time>2011-11-27T07:17:03Z</time>
      </trkpt>
      <trkpt lat="45.89984" lon="3.0541">
        <ele>461</ele>
        <time>2011-11-27T07:17:04Z</time>
      </trkpt>
      <trkpt lat="45.89921" lon="3.05426">
        <ele>456</ele>
        <time>2011-11-27T07:17:17Z</time>
      </trkpt>
      <trkpt lat="45.89895" lon="3.05397">
        <ele>452</ele>
        <time>2011-11-27T07:17:26Z</time>
      </trkpt>
      <trkpt lat="45.89894" lon="3.05392">
        <ele>452</ele>
        <time>2011-11-27T07:17:27Z</time>
      </trkpt>
      <trkpt lat="45.89892" lon="3.05374">
        <ele>452</ele>
        <time>2011-11-27T07:17:30Z</time>
      </trkpt>
      <trkpt lat="45.89914" lon="3.05282">
        <ele>453</ele>
        <time>2011-11-27T07:17:47Z</time>
      </trkpt>
      <trkpt lat="45.89919" lon="3.05191">
        <ele>465</ele>
        <time>2011-11-27T07:18:03Z</time>
      </trkpt>
      <trkpt lat="45.89902" lon="3.05106">
        <ele>449</ele>
        <time>2011-11-27T07:18:14Z</time>
      </trkpt>
      <trkpt lat="45.899" lon="3.05096">
        <ele>449</ele>
        <time>2011-11-27T07:18:15Z</time>
      </trkpt>
      <trkpt lat="45.89906" lon="3.05055">
        <ele>445</ele>
        <time>2011-11-27T07:18:19Z</time>
      </trkpt>
      <trkpt lat="45.89937" lon="3.04984">
        <ele>447</ele>
        <time>2011-11-27T07:18:27Z</time>
      </trkpt>
      <trkpt lat="45.89914" lon="3.04955">
        <ele>440</ele>
        <time>2011-11-27T07:18:34Z</time>
      </trkpt>
      <trkpt lat="45.89899" lon="3.0495">
        <ele>439</ele>
        <time>2011-11-27T07:18:36Z</time>
      </trkpt>
      <trkpt lat="45.89876" lon="3.04895">
        <ele>437</ele>
        <time>2011-11-27T07:18:44Z</time>
      </trkpt>
      <trkpt lat="45.89874" lon="3.0487">
        <ele>437</ele>
        <time>2011-11-27T07:18:47Z</time>
      </trkpt>
      <trkpt lat="45.89888" lon="3.04846">
        <ele>438</ele>
        <time>2011-11-27T07:18:54Z</time>
      </trkpt>
      <trkpt lat="45.89905" lon="3.04826">
        <ele>441</ele>
        <time>2011-11-27T07:19:02Z</time>
      </trkpt>
      <trkpt lat="45.89897" lon="3.04795">
        <ele>443</ele>
        <time>2011-11-27T07:19:13Z</time>
      </trkpt>
      <trkpt lat="45.89887" lon="3.04773">
        <ele>445</ele>
        <time>2011-11-27T07:19:21Z</time>
      </trkpt>
      <trkpt lat="45.8989" lon="3.04757">
        <ele>446</ele>
        <time>2011-11-27T07:19:27Z</time>
      </trkpt>
      <trkpt lat="45.89892" lon="3.04743">
        <ele>454</ele>
        <time>2011-11-27T07:19:33Z</time>
      </trkpt>
      <trkpt lat="45.89882" lon="3.04714">
        <ele>457</ele>
        <time>2011-11-27T07:19:47Z</time>
      </trkpt>
      <trkpt lat="45.89881" lon="3.04712">
        <ele>457</ele>
        <time>2011-11-27T07:19:48Z</time>
      </trkpt>
      <trkpt lat="45.89859" lon="3.04716">
        <ele>457</ele>
        <time>2011-11-27T07:20:04Z</time>
      </trkpt>
      <trkpt lat="45.89833" lon="3.04737">
        <ele>461</ele>
        <time>2011-11-27T07:20:17Z</time>
      </trkpt>
      <trkpt lat="45.8981" lon="3.04743">
        <ele>468</ele>
        <time>2011-11-27T07:20:33Z</time>
      </trkpt>
      <trkpt lat="45.89792" lon="3.04755">
        <ele>460</ele>
        <time>2011-11-27T07:20:49Z</time>
      </trkpt>
      <trkpt lat="45.89775" lon="3.04765">
        <ele>464</ele>
        <time>2011-11-27T07:21:07Z</time>
      </trkpt>
      <trkpt lat="45.89772" lon="3.04768">
        <ele>465</ele>
        <time>2011-11-27T07:21:11Z</time>
      </trkpt>
      <trkpt lat="45.89763" lon="3.04773">
        <ele>466</ele>
        <time>2011-11-27T07:21:21Z</time>
      </trkpt>
      <trkpt lat="45.89762" lon="3.04775">
        <ele>465</ele>
        <time>2011-11-27T07:21:24Z</time>
      </trkpt>
      <trkpt lat="45.89755" lon="3.04779">
        <ele>465</ele>
        <time>2011-11-27T07:21:30Z</time>
      </trkpt>
      <trkpt lat="45.8974" lon="3.04789">
        <ele>478</ele>
        <time>2011-11-27T07:21:47Z</time>
      </trkpt>
      <trkpt lat="45.89725" lon="3.04798">
        <ele>477</ele>
        <time>2011-11-27T07:22:01Z</time>
      </trkpt>
      <trkpt lat="45.89708" lon="3.04806">
        <ele>478</ele>
        <time>2011-11-27T07:22:17Z</time>
      </trkpt>
      <trkpt lat="45.89706" lon="3.04806">
        <ele>478</ele>
        <time>2011-11-27T07:22:19Z</time>
      </trkpt>
      <trkpt lat="45.897" lon="3.0481">
        <ele>479</ele>
        <time>2011-11-27T07:22:23Z</time>
      </trkpt>
      <trkpt lat="45.89677" lon="3.04817">
        <ele>480</ele>
        <time>2011-11-27T07:22:39Z</time>
      </trkpt>
      <trkpt lat="45.89661" lon="3.04816">
        <ele>485</ele>
        <time>2011-11-27T07:22:51Z</time>
      </trkpt>
      <trkpt lat="45.8964" lon="3.04803">
        <ele>489</ele>
        <time>2011-11-27T07:23:08Z</time>
      </trkpt>
      <trkpt lat="45.89632" lon="3.04797">
        <ele>490</ele>
        <time>2011-11-27T07:23:15Z</time>
      </trkpt>
      <trkpt lat="45.89622" lon="3.04792">
        <ele>491</ele>
        <time>2011-11-27T07:23:22Z</time>
      </trkpt>
      <trkpt lat="45.89617" lon="3.04791">
        <ele>491</ele>
        <time>2011-11-27T07:23:26Z</time>
      </trkpt>
      <trkpt lat="45.89598" lon="3.04776">
        <ele>495</ele>
        <time>2011-11-27T07:23:42Z</time>
      </trkpt>
      <trkpt lat="45.89596" lon="3.04773">
        <ele>495</ele>
        <time>2011-11-27T07:23:44Z</time>
      </trkpt>
      <trkpt lat="45.89588" lon="3.04769">
        <ele>497</ele>
        <time>2011-11-27T07:23:50Z</time>
      </trkpt>
      <trkpt lat="45.8958" lon="3.04759">
        <ele>499</ele>
        <time>2011-11-27T07:23:57Z</time>
      </trkpt>
      <trkpt lat="45.89574" lon="3.04754">
        <ele>499</ele>
        <time>2011-11-27T07:24:02Z</time>
      </trkpt>
      <trkpt lat="45.89549" lon="3.04739">
        <ele>510</ele>
        <time>2011-11-27T07:24:20Z</time>
      </trkpt>
      <trkpt lat="45.89526" lon="3.04731">
        <ele>509</ele>
        <time>2011-11-27T07:24:34Z</time>
      </trkpt>
      <trkpt lat="45.89503" lon="3.04724">
        <ele>509</ele>
        <time>2011-11-27T07:24:46Z</time>
      </trkpt>
      <trkpt lat="45.89474" lon="3.04709">
        <ele>508</ele>
        <time>2011-11-27T07:25:03Z</time>
      </trkpt>
      <trkpt lat="45.89468" lon="3.047">
        <ele>510</ele>
        <time>2011-11-27T07:25:09Z</time>
      </trkpt>
      <trkpt lat="45.89469" lon="3.04695">
        <ele>510</ele>
        <time>2011-11-27T07:25:21Z</time>
      </trkpt>
      <trkpt lat="45.89471" lon="3.04694">
        <ele>511</ele>
        <time>2011-11-27T07:25:39Z</time>
      </trkpt>
      <trkpt lat="45.89472" lon="3.04692">
        <ele>511</ele>
        <time>2011-11-27T07:26:32Z</time>
      </trkpt>
      <trkpt lat="45.89476" lon="3.04693">
        <ele>511</ele>
        <time>2011-11-27T07:26:36Z</time>
      </trkpt>
      <trkpt lat="45.89484" lon="3.04694">
        <ele>511</ele>
        <time>2011-11-27T07:26:42Z</time>
      </trkpt>
      <trkpt lat="45.89503" lon="3.04698">
        <ele>514</ele>
        <time>2011-11-27T07:26:54Z</time>
      </trkpt>
      <trkpt lat="45.89507" lon="3.04698">
        <ele>514</ele>
        <time>2011-11-27T07:26:56Z</time>
      </trkpt>
      <trkpt lat="45.89528" lon="3.04702">
        <ele>514</ele>
        <time>2011-11-27T07:27:08Z</time>
      </trkpt>
      <trkpt lat="45.89531" lon="3.04702">
        <ele>514</ele>
        <time>2011-11-27T07:27:10Z</time>
      </trkpt>
      <trkpt lat="45.8954" lon="3.04704">
        <ele>514</ele>
        <time>2011-11-27T07:27:17Z</time>
      </trkpt>
      <trkpt lat="45.89553" lon="3.04704">
        <ele>515</ele>
        <time>2011-11-27T07:27:29Z</time>
      </trkpt>
      <trkpt lat="45.89556" lon="3.04706">
        <ele>515</ele>
        <time>2011-11-27T07:27:40Z</time>
      </trkpt>
      <trkpt lat="45.89566" lon="3.04705">
        <ele>515</ele>
        <time>2011-11-27T07:27:54Z</time>
      </trkpt>
      <trkpt lat="45.89585" lon="3.04708">
        <ele>518</ele>
        <time>2011-11-27T07:28:07Z</time>
      </trkpt>
      <trkpt lat="45.89611" lon="3.0471">
        <ele>517</ele>
        <time>2011-11-27T07:28:18Z</time>
      </trkpt>
      <trkpt lat="45.89619" lon="3.0471">
        <ele>518</ele>
        <time>2011-11-27T07:28:21Z</time>
      </trkpt>
      <trkpt lat="45.89646" lon="3.04713">
        <ele>517</ele>
        <time>2011-11-27T07:28:33Z</time>
      </trkpt>
      <trkpt lat="45.89655" lon="3.04712">
        <ele>517</ele>
        <time>2011-11-27T07:28:46Z</time>
      </trkpt>
      <trkpt lat="45.89656" lon="3.04712">
        <ele>517</ele>
        <time>2011-11-27T07:28:48Z</time>
      </trkpt>
      <trkpt lat="45.8966" lon="3.04712">
        <ele>517</ele>
        <time>2011-11-27T07:28:57Z</time>
      </trkpt>
      <trkpt lat="45.89675" lon="3.04715">
        <ele>510</ele>
        <time>2011-11-27T07:29:08Z</time>
      </trkpt>
      <trkpt lat="45.89685" lon="3.04718">
        <ele>509</ele>
        <time>2011-11-27T07:29:13Z</time>
      </trkpt>
      <trkpt lat="45.89703" lon="3.04706">
        <ele>509</ele>
        <time>2011-11-27T07:29:23Z</time>
      </trkpt>
      <trkpt lat="45.8972" lon="3.04678">
        <ele>512</ele>
        <time>2011-11-27T07:29:36Z</time>
      </trkpt>
      <trkpt lat="45.89741" lon="3.04653">
        <ele>523</ele>
        <time>2011-11-27T07:29:48Z</time>
      </trkpt>
      <trkpt lat="45.89751" lon="3.04626">
        <ele>506</ele>
        <time>2011-11-27T07:29:59Z</time>
      </trkpt>
      <trkpt lat="45.89748" lon="3.04582">
        <ele>530</ele>
        <time>2011-11-27T07:30:13Z</time>
      </trkpt>
      <trkpt lat="45.89749" lon="3.04567">
        <ele>538</ele>
        <time>2011-11-27T07:30:18Z</time>
      </trkpt>
      <trkpt lat="45.89752" lon="3.0455">
        <ele>516</ele>
        <time>2011-11-27T07:30:23Z</time>
      </trkpt>
      <trkpt lat="45.89738" lon="3.04512">
        <ele>542</ele>
        <time>2011-11-27T07:30:36Z</time>
      </trkpt>
      <trkpt lat="45.89736" lon="3.04496">
        <ele>546</ele>
        <time>2011-11-27T07:30:41Z</time>
      </trkpt>
      <trkpt lat="45.89734" lon="3.04488">
        <ele>549</ele>
        <time>2011-11-27T07:30:44Z</time>
      </trkpt>
      <trkpt lat="45.89753" lon="3.04449">
        <ele>527</ele>
        <time>2011-11-27T07:30:57Z</time>
      </trkpt>
      <trkpt lat="45.89762" lon="3.04414">
        <ele>542</ele>
        <time>2011-11-27T07:31:09Z</time>
      </trkpt>
      <trkpt lat="45.89758" lon="3.04376">
        <ele>547</ele>
        <time>2011-11-27T07:31:21Z</time>
      </trkpt>
      <trkpt lat="45.89764" lon="3.04373">
        <ele>547</ele>
        <time>2011-11-27T07:31:31Z</time>
      </trkpt>
      <trkpt lat="45.89772" lon="3.04371">
        <ele>546</ele>
        <time>2011-11-27T07:31:36Z</time>
      </trkpt>
      <trkpt lat="45.89797" lon="3.0435">
        <ele>546</ele>
        <time>2011-11-27T07:31:49Z</time>
      </trkpt>
      <trkpt lat="45.89812" lon="3.04334">
        <ele>546</ele>
        <time>2011-11-27T07:32:01Z</time>
      </trkpt>
      <trkpt lat="45.8982" lon="3.04334">
        <ele>547</ele>
        <time>2011-11-27T07:32:07Z</time>
      </trkpt>
      <trkpt lat="45.89829" lon="3.04335">
        <ele>548</ele>
        <time>2011-11-27T07:32:21Z</time>
      </trkpt>
      <trkpt lat="45.89843" lon="3.04332">
        <ele>551</ele>
        <time>2011-11-27T07:32:32Z</time>
      </trkpt>
      <trkpt lat="45.89855" lon="3.04336">
        <ele>535</ele>
        <time>2011-11-27T07:32:40Z</time>
      </trkpt>
      <trkpt lat="45.89861" lon="3.04336">
        <ele>533</ele>
        <time>2011-11-27T07:32:43Z</time>
      </trkpt>
      <trkpt lat="45.89878" lon="3.04347">
        <ele>529</ele>
        <time>2011-11-27T07:32:56Z</time>
      </trkpt>
      <trkpt lat="45.89877" lon="3.04345">
        <ele>529</ele>
        <time>2011-11-27T07:33:46Z</time>
      </trkpt>
      <trkpt lat="45.89877" lon="3.04343">
        <ele>529</ele>
        <time>2011-11-27T07:34:07Z</time>
      </trkpt>
      <trkpt lat="45.89875" lon="3.04328">
        <ele>550</ele>
        <time>2011-11-27T07:34:12Z</time>
      </trkpt>
      <trkpt lat="45.89885" lon="3.04314">
        <ele>550</ele>
        <time>2011-11-27T07:34:17Z</time>
      </trkpt>
      <trkpt lat="45.89897" lon="3.04291">
        <ele>553</ele>
        <time>2011-11-27T07:34:23Z</time>
      </trkpt>
      <trkpt lat="45.89911" lon="3.04274">
        <ele>555</ele>
        <time>2011-11-27T07:34:29Z</time>
      </trkpt>
      <trkpt lat="45.89931" lon="3.04268">
        <ele>551</ele>
        <time>2011-11-27T07:34:36Z</time>
      </trkpt>
      <trkpt lat="45.89941" lon="3.0426">
        <ele>551</ele>
        <time>2011-11-27T07:34:42Z</time>
      </trkpt>
      <trkpt lat="45.89944" lon="3.04254">
        <ele>551</ele>
        <time>2011-11-27T07:34:45Z</time>
      </trkpt>
      <trkpt lat="45.89956" lon="3.04248">
        <ele>557</ele>
        <time>2011-11-27T07:34:51Z</time>
      </trkpt>
      <trkpt lat="45.8997" lon="3.04223">
        <ele>558</ele>
        <time>2011-11-27T07:35:00Z</time>
      </trkpt>
      <trkpt lat="45.89974" lon="3.04209">
        <ele>559</ele>
        <time>2011-11-27T07:35:05Z</time>
      </trkpt>
      <trkpt lat="45.89969" lon="3.04194">
        <ele>560</ele>
        <time>2011-11-27T07:35:16Z</time>
      </trkpt>
      <trkpt lat="45.89967" lon="3.04192">
        <ele>560</ele>
        <time>2011-11-27T07:35:20Z</time>
      </trkpt>
      <trkpt lat="45.89964" lon="3.04184">
        <ele>561</ele>
        <time>2011-11-27T07:35:31Z</time>
      </trkpt>
      <trkpt lat="45.89962" lon="3.04177">
        <ele>561</ele>
        <time>2011-11-27T07:35:40Z</time>
      </trkpt>
      <trkpt lat="45.89957" lon="3.04168">
        <ele>561</ele>
        <time>2011-11-27T07:35:50Z</time>
      </trkpt>
      <trkpt lat="45.89945" lon="3.04154">
        <ele>568</ele>
        <time>2011-11-27T07:36:07Z</time>
      </trkpt>
      <trkpt lat="45.89945" lon="3.04151">
        <ele>568</ele>
        <time>2011-11-27T07:36:13Z</time>
      </trkpt>
      <trkpt lat="45.89938" lon="3.04147">
        <ele>567</ele>
        <time>2011-11-27T07:36:17Z</time>
      </trkpt>
      <trkpt lat="45.89927" lon="3.0414">
        <ele>567</ele>
        <time>2011-11-27T07:36:30Z</time>
      </trkpt>
      <trkpt lat="45.89925" lon="3.04139">
        <ele>567</ele>
        <time>2011-11-27T07:36:32Z</time>
      </trkpt>
      <trkpt lat="45.8992" lon="3.04133">
        <ele>568</ele>
        <time>2011-11-27T07:36:39Z</time>
      </trkpt>
      <trkpt lat="45.89914" lon="3.04131">
        <ele>568</ele>
        <time>2011-11-27T07:36:46Z</time>
      </trkpt>
      <trkpt lat="45.89909" lon="3.04121">
        <ele>568</ele>
        <time>2011-11-27T07:36:54Z</time>
      </trkpt>
      <trkpt lat="45.89903" lon="3.04114">
        <ele>569</ele>
        <time>2011-11-27T07:37:00Z</time>
      </trkpt>
      <trkpt lat="45.89893" lon="3.04102">
        <ele>569</ele>
        <time>2011-11-27T07:37:12Z</time>
      </trkpt>
      <trkpt lat="45.89883" lon="3.04083">
        <ele>572</ele>
        <time>2011-11-27T07:37:22Z</time>
      </trkpt>
      <trkpt lat="45.89882" lon="3.04081">
        <ele>572</ele>
        <time>2011-11-27T07:37:24Z</time>
      </trkpt>
      <trkpt lat="45.89878" lon="3.04067">
        <ele>573</ele>
        <time>2011-11-27T07:37:35Z</time>
      </trkpt>
      <trkpt lat="45.89872" lon="3.04048">
        <ele>574</ele>
        <time>2011-11-27T07:37:49Z</time>
      </trkpt>
      <trkpt lat="45.89868" lon="3.04033">
        <ele>575</ele>
        <time>2011-11-27T07:37:57Z</time>
      </trkpt>
      <trkpt lat="45.89865" lon="3.04008">
        <ele>576</ele>
        <time>2011-11-27T07:38:05Z</time>
      </trkpt>
      <trkpt lat="45.89875" lon="3.0397">
        <ele>579</ele>
        <time>2011-11-27T07:38:19Z</time>
      </trkpt>
      <trkpt lat="45.89881" lon="3.03948">
        <ele>579</ele>
        <time>2011-11-27T07:38:33Z</time>
      </trkpt>
      <trkpt lat="45.89886" lon="3.03923">
        <ele>579</ele>
        <time>2011-11-27T07:40:38Z</time>
      </trkpt>
      <trkpt lat="45.89889" lon="3.03904">
        <ele>581</ele>
        <time>2011-11-27T07:40:45Z</time>
      </trkpt>
      <trkpt lat="45.8989" lon="3.0389">
        <ele>582</ele>
        <time>2011-11-27T07:40:50Z</time>
      </trkpt>
      <trkpt lat="45.89888" lon="3.03867">
        <ele>583</ele>
        <time>2011-11-27T07:40:57Z</time>
      </trkpt>
      <trkpt lat="45.89884" lon="3.03835">
        <ele>583</ele>
        <time>2011-11-27T07:41:08Z</time>
      </trkpt>
      <trkpt lat="45.8988" lon="3.03797">
        <ele>587</ele>
        <time>2011-11-27T07:41:20Z</time>
      </trkpt>
      <trkpt lat="45.89872" lon="3.03785">
        <ele>588</ele>
        <time>2011-11-27T07:41:32Z</time>
      </trkpt>
      <trkpt lat="45.89869" lon="3.0378">
        <ele>588</ele>
        <time>2011-11-27T07:41:43Z</time>
      </trkpt>
      <trkpt lat="45.89862" lon="3.03752">
        <ele>589</ele>
        <time>2011-11-27T07:41:55Z</time>
      </trkpt>
      <trkpt lat="45.89864" lon="3.03729">
        <ele>590</ele>
        <time>2011-11-27T07:42:06Z</time>
      </trkpt>
      <trkpt lat="45.89865" lon="3.03725">
        <ele>590</ele>
        <time>2011-11-27T07:42:10Z</time>
      </trkpt>
      <trkpt lat="45.89874" lon="3.03708">
        <ele>589</ele>
        <time>2011-11-27T07:42:21Z</time>
      </trkpt>
      <trkpt lat="45.89879" lon="3.0368">
        <ele>589</ele>
        <time>2011-11-27T07:42:34Z</time>
      </trkpt>
      <trkpt lat="45.89879" lon="3.03672">
        <ele>589</ele>
        <time>2011-11-27T07:42:39Z</time>
      </trkpt>
      <trkpt lat="45.89881" lon="3.03661">
        <ele>588</ele>
        <time>2011-11-27T07:42:44Z</time>
      </trkpt>
      <trkpt lat="45.89886" lon="3.03649">
        <ele>588</ele>
        <time>2011-11-27T07:42:49Z</time>
      </trkpt>
      <trkpt lat="45.89883" lon="3.03611">
        <ele>588</ele>
        <time>2011-11-27T07:43:02Z</time>
      </trkpt>
      <trkpt lat="45.89882" lon="3.03608">
        <ele>588</ele>
        <time>2011-11-27T07:43:03Z</time>
      </trkpt>
      <trkpt lat="45.89878" lon="3.03601">
        <ele>588</ele>
        <time>2011-11-27T07:43:09Z</time>
      </trkpt>
      <trkpt lat="45.8988" lon="3.0359">
        <ele>588</ele>
        <time>2011-11-27T07:43:17Z</time>
      </trkpt>
      <trkpt lat="45.89879" lon="3.03582">
        <ele>590</ele>
        <time>2011-11-27T07:43:31Z</time>
      </trkpt>
      <trkpt lat="45.89879" lon="3.03582">
        <ele>590</ele>
        <time>2011-11-27T07:43:32Z</time>
      </trkpt>
      <trkpt lat="45.89863" lon="3.03576">
        <ele>589</ele>
        <time>2011-11-27T07:43:41Z</time>
      </trkpt>
      <trkpt lat="45.89836" lon="3.03558">
        <ele>588</ele>
        <time>2011-11-27T07:43:53Z</time>
      </trkpt>
      <trkpt lat="45.89819" lon="3.03528">
        <ele>592</ele>
        <time>2011-11-27T07:44:04Z</time>
      </trkpt>
      <trkpt lat="45.89813" lon="3.03517">
        <ele>592</ele>
        <time>2011-11-27T07:44:08Z</time>
      </trkpt>
      <trkpt lat="45.89804" lon="3.03482">
        <ele>594</ele>
        <time>2011-11-27T07:44:20Z</time>
      </trkpt>
      <trkpt lat="45.89802" lon="3.03476">
        <ele>595</ele>
        <time>2011-11-27T07:44:22Z</time>
      </trkpt>
      <trkpt lat="45.89801" lon="3.0347">
        <ele>595</ele>
        <time>2011-11-27T07:44:24Z</time>
      </trkpt>
      <trkpt lat="45.89799" lon="3.03456">
        <ele>596</ele>
        <time>2011-11-27T07:44:28Z</time>
      </trkpt>
      <trkpt lat="45.89794" lon="3.03417">
        <ele>597</ele>
        <time>2011-11-27T07:44:40Z</time>
      </trkpt>
      <trkpt lat="45.89788" lon="3.03376">
        <ele>601</ele>
        <time>2011-11-27T07:44:51Z</time>
      </trkpt>
      <trkpt lat="45.89789" lon="3.03328">
        <ele>601</ele>
        <time>2011-11-27T07:45:04Z</time>
      </trkpt>
      <trkpt lat="45.89795" lon="3.03299">
        <ele>600</ele>
        <time>2011-11-27T07:45:13Z</time>
      </trkpt>
      <trkpt lat="45.89807" lon="3.03259">
        <ele>598</ele>
        <time>2011-11-27T07:45:26Z</time>
      </trkpt>
      <trkpt lat="45.89817" lon="3.03241">
        <ele>596</ele>
        <time>2011-11-27T07:45:36Z</time>
      </trkpt>
      <trkpt lat="45.89826" lon="3.03236">
        <ele>595</ele>
        <time>2011-11-27T07:45:48Z</time>
      </trkpt>
      <trkpt lat="45.89836" lon="3.03227">
        <ele>597</ele>
        <time>2011-11-27T07:46:00Z</time>
      </trkpt>
      <trkpt lat="45.89844" lon="3.03224">
        <ele>598</ele>
        <time>2011-11-27T07:46:04Z</time>
      </trkpt>
      <trkpt lat="45.89846" lon="3.03218">
        <ele>599</ele>
        <time>2011-11-27T07:46:11Z</time>
      </trkpt>
      <trkpt lat="45.89849" lon="3.03215">
        <ele>599</ele>
        <time>2011-11-27T07:46:16Z</time>
      </trkpt>
      <trkpt lat="45.89851" lon="3.03217">
        <ele>599</ele>
        <time>2011-11-27T07:46:34Z</time>
      </trkpt>
      <trkpt lat="45.89854" lon="3.03221">
        <ele>599</ele>
        <time>2011-11-27T07:47:07Z</time>
      </trkpt>
      <trkpt lat="45.89856" lon="3.0323">
        <ele>599</ele>
        <time>2011-11-27T07:47:14Z</time>
      </trkpt>
      <trkpt lat="45.89854" lon="3.03266">
        <ele>599</ele>
        <time>2011-11-27T07:47:32Z</time>
      </trkpt>
      <trkpt lat="45.89848" lon="3.03275">
        <ele>599</ele>
        <time>2011-11-27T07:47:39Z</time>
      </trkpt>
      <trkpt lat="45.8984" lon="3.03311">
        <ele>598</ele>
        <time>2011-11-27T07:47:58Z</time>
      </trkpt>
      <trkpt lat="45.8984" lon="3.03315">
        <ele>598</ele>
        <time>2011-11-27T07:48:00Z</time>
      </trkpt>
      <trkpt lat="45.89845" lon="3.03328">
        <ele>597</ele>
        <time>2011-11-27T07:48:08Z</time>
      </trkpt>
      <trkpt lat="45.89851" lon="3.03345">
        <ele>598</ele>
        <time>2011-11-27T07:48:22Z</time>
      </trkpt>
      <trkpt lat="45.89854" lon="3.03351">
        <ele>599</ele>
        <time>2011-11-27T07:48:26Z</time>
      </trkpt>
      <trkpt lat="45.89863" lon="3.03372">
        <ele>600</ele>
        <time>2011-11-27T07:48:40Z</time>
      </trkpt>
      <trkpt lat="45.89872" lon="3.03402">
        <ele>601</ele>
        <time>2011-11-27T07:48:58Z</time>
      </trkpt>
      <trkpt lat="45.89876" lon="3.03413">
        <ele>601</ele>
        <time>2011-11-27T07:49:04Z</time>
      </trkpt>
      <trkpt lat="45.8988" lon="3.03422">
        <ele>599</ele>
        <time>2011-11-27T07:49:09Z</time>
      </trkpt>
      <trkpt lat="45.89888" lon="3.03439">
        <ele>600</ele>
        <time>2011-11-27T07:49:20Z</time>
      </trkpt>
      <trkpt lat="45.89896" lon="3.03448">
        <ele>600</ele>
        <time>2011-11-27T07:49:28Z</time>
      </trkpt>
      <trkpt lat="45.89916" lon="3.03467">
        <ele>600</ele>
        <time>2011-11-27T07:49:44Z</time>
      </trkpt>
      <trkpt lat="45.89945" lon="3.03476">
        <ele>612</ele>
        <time>2011-11-27T07:50:00Z</time>
      </trkpt>
      <trkpt lat="45.89967" lon="3.03493">
        <ele>615</ele>
        <time>2011-11-27T07:50:13Z</time>
      </trkpt>
      <trkpt lat="45.89988" lon="3.03523">
        <ele>612</ele>
        <time>2011-11-27T07:50:30Z</time>
      </trkpt>
      <trkpt lat="45.90001" lon="3.03541">
        <ele>622</ele>
        <time>2011-11-27T07:50:41Z</time>
      </trkpt>
      <trkpt lat="45.90023" lon="3.03569">
        <ele>622</ele>
        <time>2011-11-27T07:50:56Z</time>
      </trkpt>
      <trkpt lat="45.90051" lon="3.03615">
        <ele>623</ele>
        <time>2011-11-27T07:51:14Z</time>
      </trkpt>
      <trkpt lat="45.90071" lon="3.03656">
        <ele>625</ele>
        <time>2011-11-27T07:51:28Z</time>
      </trkpt>
      <trkpt lat="45.90095" lon="3.03685">
        <ele>630</ele>
        <time>2011-11-27T07:51:44Z</time>
      </trkpt>
      <trkpt lat="45.90117" lon="3.0371">
        <ele>632</ele>
        <time>2011-11-27T07:51:58Z</time>
      </trkpt>
      <trkpt lat="45.90141" lon="3.03759">
        <ele>630</ele>
        <time>2011-11-27T07:52:07Z</time>
      </trkpt>
      <trkpt lat="45.9017" lon="3.03787">
        <ele>640</ele>
        <time>2011-11-27T07:52:15Z</time>
      </trkpt>
      <trkpt lat="45.90198" lon="3.03804">
        <ele>641</ele>
        <time>2011-11-27T07:52:30Z</time>
      </trkpt>
      <trkpt lat="45.90219" lon="3.03819">
        <ele>642</ele>
        <time>2011-11-27T07:52:43Z</time>
      </trkpt>
      <trkpt lat="45.90248" lon="3.03844">
        <ele>643</ele>
        <time>2011-11-27T07:53:00Z</time>
      </trkpt>
      <trkpt lat="45.90262" lon="3.03891">
        <ele>648</ele>
        <time>2011-11-27T07:53:19Z</time>
      </trkpt>
      <trkpt lat="45.90274" lon="3.03941">
        <ele>649</ele>
        <time>2011-11-27T07:53:39Z</time>
      </trkpt>
      <trkpt lat="45.90307" lon="3.03978">
        <ele>650</ele>
        <time>2011-11-27T07:53:58Z</time>
      </trkpt>
      <trkpt lat="45.9035" lon="3.0401">
        <ele>644</ele>
        <time>2011-11-27T07:54:17Z</time>
      </trkpt>
      <trkpt lat="45.90358" lon="3.04015">
        <ele>643</ele>
        <time>2011-11-27T07:54:19Z</time>
      </trkpt>
      <trkpt lat="45.90393" lon="3.03991">
        <ele>644</ele>
        <time>2011-11-27T07:54:26Z</time>
      </trkpt>
      <trkpt lat="45.90434" lon="3.03874">
        <ele>647</ele>
        <time>2011-11-27T07:54:38Z</time>
      </trkpt>
      <trkpt lat="45.90454" lon="3.03846">
        <ele>648</ele>
        <time>2011-11-27T07:54:46Z</time>
      </trkpt>
      <trkpt lat="45.90487" lon="3.0384">
        <ele>649</ele>
        <time>2011-11-27T07:55:00Z</time>
      </trkpt>
      <trkpt lat="45.90511" lon="3.03815">
        <ele>652</ele>
        <time>2011-11-27T07:55:13Z</time>
      </trkpt>
      <trkpt lat="45.90534" lon="3.0377">
        <ele>653</ele>
        <time>2011-11-27T07:55:31Z</time>
      </trkpt>
      <trkpt lat="45.90528" lon="3.0373">
        <ele>657</ele>
        <time>2011-11-27T07:55:46Z</time>
      </trkpt>
      <trkpt lat="45.90522" lon="3.037">
        <ele>659</ele>
        <time>2011-11-27T07:56:00Z</time>
      </trkpt>
      <trkpt lat="45.90522" lon="3.03665">
        <ele>662</ele>
        <time>2011-11-27T07:56:16Z</time>
      </trkpt>
      <trkpt lat="45.90511" lon="3.03641">
        <ele>662</ele>
        <time>2011-11-27T07:56:29Z</time>
      </trkpt>
      <trkpt lat="45.90487" lon="3.03631">
        <ele>669</ele>
        <time>2011-11-27T07:56:45Z</time>
      </trkpt>
      <trkpt lat="45.90469" lon="3.03618">
        <ele>670</ele>
        <time>2011-11-27T07:56:57Z</time>
      </trkpt>
      <trkpt lat="45.90452" lon="3.03609">
        <ele>671</ele>
        <time>2011-11-27T07:57:08Z</time>
      </trkpt>
      <trkpt lat="45.90435" lon="3.03595">
        <ele>673</ele>
        <time>2011-11-27T07:57:21Z</time>
      </trkpt>
      <trkpt lat="45.90433" lon="3.03587">
        <ele>673</ele>
        <time>2011-11-27T07:57:25Z</time>
      </trkpt>
      <trkpt lat="45.90419" lon="3.0356">
        <ele>676</ele>
        <time>2011-11-27T07:57:40Z</time>
      </trkpt>
      <trkpt lat="45.90402" lon="3.03514">
        <ele>683</ele>
        <time>2011-11-27T07:57:58Z</time>
      </trkpt>
      <trkpt lat="45.90384" lon="3.03492">
        <ele>688</ele>
        <time>2011-11-27T07:58:11Z</time>
      </trkpt>
      <trkpt lat="45.90364" lon="3.03473">
        <ele>689</ele>
        <time>2011-11-27T07:58:26Z</time>
      </trkpt>
      <trkpt lat="45.90344" lon="3.03449">
        <ele>691</ele>
        <time>2011-11-27T07:58:42Z</time>
      </trkpt>
      <trkpt lat="45.90336" lon="3.0344">
        <ele>692</ele>
        <time>2011-11-27T07:58:49Z</time>
      </trkpt>
      <trkpt lat="45.90331" lon="3.03419">
        <ele>695</ele>
        <time>2011-11-27T07:58:58Z</time>
      </trkpt>
      <trkpt lat="45.90328" lon="3.03409">
        <ele>698</ele>
        <time>2011-11-27T07:59:04Z</time>
      </trkpt>
      <trkpt lat="45.90319" lon="3.03378">
        <ele>701</ele>
        <time>2011-11-27T07:59:20Z</time>
      </trkpt>
      <trkpt lat="45.90316" lon="3.03366">
        <ele>702</ele>
        <time>2011-11-27T07:59:26Z</time>
      </trkpt>
      <trkpt lat="45.90314" lon="3.03352">
        <ele>703</ele>
        <time>2011-11-27T07:59:33Z</time>
      </trkpt>
      <trkpt lat="45.90315" lon="3.0332">
        <ele>708</ele>
        <time>2011-11-27T07:59:48Z</time>
      </trkpt>
      <trkpt lat="45.9032" lon="3.03288">
        <ele>710</ele>
        <time>2011-11-27T08:00:03Z</time>
      </trkpt>
      <trkpt lat="45.90326" lon="3.03243">
        <ele>714</ele>
        <time>2011-11-27T08:00:23Z</time>
      </trkpt>
      <trkpt lat="45.90325" lon="3.03225">
        <ele>714</ele>
        <time>2011-11-27T08:00:31Z</time>
      </trkpt>
      <trkpt lat="45.90329" lon="3.03222">
        <ele>714</ele>
        <time>2011-11-27T08:00:40Z</time>
      </trkpt>
      <trkpt lat="45.90329" lon="3.03222">
        <ele>714</ele>
        <time>2011-11-27T08:01:45Z</time>
      </trkpt>
      <trkpt lat="45.90315" lon="3.0319">
        <ele>715</ele>
        <time>2011-11-27T08:02:01Z</time>
      </trkpt>
      <trkpt lat="45.90315" lon="3.03187">
        <ele>716</ele>
        <time>2011-11-27T08:02:13Z</time>
      </trkpt>
      <trkpt lat="45.90315" lon="3.03188">
        <ele>715</ele>
        <time>2011-11-27T08:02:46Z</time>
      </trkpt>
      <trkpt lat="45.90314" lon="3.03189">
        <ele>715</ele>
        <time>2011-11-27T08:03:04Z</time>
      </trkpt>
      <trkpt lat="45.90315" lon="3.03189">
        <ele>715</ele>
        <time>2011-11-27T08:03:20Z</time>
      </trkpt>
      <trkpt lat="45.90316" lon="3.0319">
        <ele>715</ele>
        <time>2011-11-27T08:03:51Z</time>
      </trkpt>
      <trkpt lat="45.90314" lon="3.03185">
        <ele>716</ele>
        <time>2011-11-27T08:05:39Z</time>
      </trkpt>
      <trkpt lat="45.9031" lon="3.03163">
        <ele>716</ele>
        <time>2011-11-27T08:05:47Z</time>
      </trkpt>
      <trkpt lat="45.9031" lon="3.03107">
        <ele>717</ele>
        <time>2011-11-27T08:06:01Z</time>
      </trkpt>
      <trkpt lat="45.90312" lon="3.03035">
        <ele>717</ele>
        <time>2011-11-27T08:06:17Z</time>
      </trkpt>
      <trkpt lat="45.90322" lon="3.02974">
        <ele>717</ele>
        <time>2011-11-27T08:06:31Z</time>
      </trkpt>
      <trkpt lat="45.90337" lon="3.02906">
        <ele>726</ele>
        <time>2011-11-27T08:06:47Z</time>
      </trkpt>
      <trkpt lat="45.90353" lon="3.02838">
        <ele>724</ele>
        <time>2011-11-27T08:07:02Z</time>
      </trkpt>
      <trkpt lat="45.90379" lon="3.02761">
        <ele>723</ele>
        <time>2011-11-27T08:07:19Z</time>
      </trkpt>
      <trkpt lat="45.90428" lon="3.02686">
        <ele>727</ele>
        <time>2011-11-27T08:07:38Z</time>
      </trkpt>
      <trkpt lat="45.90476" lon="3.0262">
        <ele>722</ele>
        <time>2011-11-27T08:07:54Z</time>
      </trkpt>
      <trkpt lat="45.90479" lon="3.02616">
        <ele>722</ele>
        <time>2011-11-27T08:07:55Z</time>
      </trkpt>
      <trkpt lat="45.90495" lon="3.02591">
        <ele>723</ele>
        <time>2011-11-27T08:08:00Z</time>
      </trkpt>
      <trkpt lat="45.90557" lon="3.02544">
        <ele>723</ele>
        <time>2011-11-27T08:08:16Z</time>
      </trkpt>
      <trkpt lat="45.90616" lon="3.02517">
        <ele>725</ele>
        <time>2011-11-27T08:08:30Z</time>
      </trkpt>
      <trkpt lat="45.90627" lon="3.02508">
        <ele>725</ele>
        <time>2011-11-27T08:08:33Z</time>
      </trkpt>
      <trkpt lat="45.90644" lon="3.0247">
        <ele>724</ele>
        <time>2011-11-27T08:08:42Z</time>
      </trkpt>
      <trkpt lat="45.90634" lon="3.02416">
        <ele>725</ele>
        <time>2011-11-27T08:08:52Z</time>
      </trkpt>
      <trkpt lat="45.90617" lon="3.02399">
        <ele>724</ele>
        <time>2011-11-27T08:08:56Z</time>
      </trkpt>
      <trkpt lat="45.90604" lon="3.02397">
        <ele>723</ele>
        <time>2011-11-27T08:08:58Z</time>
      </trkpt>
      <trkpt lat="45.90546" lon="3.02361">
        <ele>714</ele>
        <time>2011-11-27T08:09:06Z</time>
      </trkpt>
      <trkpt lat="45.90497" lon="3.02271">
        <ele>706</ele>
        <time>2011-11-27T08:09:15Z</time>
      </trkpt>
      <trkpt lat="45.90463" lon="3.02164">
        <ele>705</ele>
        <time>2011-11-27T08:09:25Z</time>
      </trkpt>
      <trkpt lat="45.90457" lon="3.0205">
        <ele>704</ele>
        <time>2011-11-27T08:09:39Z</time>
      </trkpt>
      <trkpt lat="45.90451" lon="3.01949">
        <ele>704</ele>
        <time>2011-11-27T08:09:52Z</time>
      </trkpt>
      <trkpt lat="45.90429" lon="3.01831">
        <ele>699</ele>
        <time>2011-11-27T08:10:03Z</time>
      </trkpt>
      <trkpt lat="45.9042" lon="3.018">
        <ele>701</ele>
        <time>2011-11-27T08:10:06Z</time>
      </trkpt>
      <trkpt lat="45.90395" lon="3.01693">
        <ele>682</ele>
        <time>2011-11-27T08:10:15Z</time>
      </trkpt>
      <trkpt lat="45.90392" lon="3.01659">
        <ele>684</ele>
        <time>2011-11-27T08:10:18Z</time>
      </trkpt>
      <trkpt lat="45.90384" lon="3.01622">
        <ele>683</ele>
        <time>2011-11-27T08:10:25Z</time>
      </trkpt>
      <trkpt lat="45.90384" lon="3.01624">
        <ele>683</ele>
        <time>2011-11-27T08:11:37Z</time>
      </trkpt>
      <trkpt lat="45.90381" lon="3.01617">
        <ele>682</ele>
        <time>2011-11-27T08:12:02Z</time>
      </trkpt>
      <trkpt lat="45.90366" lon="3.01568">
        <ele>681</ele>
        <time>2011-11-27T08:12:12Z</time>
      </trkpt>
      <trkpt lat="45.90333" lon="3.01487">
        <ele>675</ele>
        <time>2011-11-27T08:12:20Z</time>
      </trkpt>
      <trkpt lat="45.90285" lon="3.0147">
        <ele>679</ele>
        <time>2011-11-27T08:12:26Z</time>
      </trkpt>
      <trkpt lat="45.90262" lon="3.01511">
        <ele>679</ele>
        <time>2011-11-27T08:12:32Z</time>
      </trkpt>
      <trkpt lat="45.90261" lon="3.01516">
        <ele>678</ele>
        <time>2011-11-27T08:12:33Z</time>
      </trkpt>
      <trkpt lat="45.90261" lon="3.01553">
        <ele>678</ele>
        <time>2011-11-27T08:12:45Z</time>
      </trkpt>
      <trkpt lat="45.90259" lon="3.01592">
        <ele>678</ele>
        <time>2011-11-27T08:12:59Z</time>
      </trkpt>
      <trkpt lat="45.90243" lon="3.01639">
        <ele>684</ele>
        <time>2011-11-27T08:13:14Z</time>
      </trkpt>
      <trkpt lat="45.90199" lon="3.01694">
        <ele>684</ele>
        <time>2011-11-27T08:13:36Z</time>
      </trkpt>
      <trkpt lat="45.90162" lon="3.01732">
        <ele>689</ele>
        <time>2011-11-27T08:13:53Z</time>
      </trkpt>
      <trkpt lat="45.901" lon="3.01767">
        <ele>688</ele>
        <time>2011-11-27T08:14:13Z</time>
      </trkpt>
      <trkpt lat="45.90042" lon="3.01776">
        <ele>689</ele>
        <time>2011-11-27T08:14:31Z</time>
      </trkpt>
      <trkpt lat="45.90034" lon="3.01774">
        <ele>690</ele>
        <time>2011-11-27T08:14:34Z</time>
      </trkpt>
      <trkpt lat="45.90033" lon="3.01762">
        <ele>690</ele>
        <time>2011-11-27T08:14:38Z</time>
      </trkpt>
      <trkpt lat="45.90051" lon="3.01706">
        <ele>696</ele>
        <time>2011-11-27T08:14:57Z</time>
      </trkpt>
      <trkpt lat="45.90064" lon="3.01652">
        <ele>701</ele>
        <time>2011-11-27T08:15:16Z</time>
      </trkpt>
      <trkpt lat="45.90065" lon="3.01599">
        <ele>703</ele>
        <time>2011-11-27T08:15:35Z</time>
      </trkpt>
      <trkpt lat="45.90063" lon="3.01548">
        <ele>706</ele>
        <time>2011-11-27T08:15:53Z</time>
      </trkpt>
      <trkpt lat="45.90069" lon="3.01506">
        <ele>706</ele>
        <time>2011-11-27T08:16:08Z</time>
      </trkpt>
      <trkpt lat="45.90081" lon="3.01456">
        <ele>708</ele>
        <time>2011-11-27T08:16:24Z</time>
      </trkpt>
      <trkpt lat="45.90078" lon="3.0138">
        <ele>710</ele>
        <time>2011-11-27T08:16:43Z</time>
      </trkpt>
      <trkpt lat="45.90051" lon="3.01308">
        <ele>713</ele>
        <time>2011-11-27T08:17:04Z</time>
      </trkpt>
      <trkpt lat="45.90044" lon="3.01257">
        <ele>714</ele>
        <time>2011-11-27T08:17:18Z</time>
      </trkpt>
      <trkpt lat="45.9003" lon="3.012">
        <ele>718</ele>
        <time>2011-11-27T08:17:35Z</time>
      </trkpt>
      <trkpt lat="45.90038" lon="3.01144">
        <ele>720</ele>
        <time>2011-11-27T08:17:51Z</time>
      </trkpt>
      <trkpt lat="45.90043" lon="3.01135">
        <ele>720</ele>
        <time>2011-11-27T08:17:54Z</time>
      </trkpt>
      <trkpt lat="45.90036" lon="3.01114">
        <ele>721</ele>
        <time>2011-11-27T08:18:03Z</time>
      </trkpt>
      <trkpt lat="45.90001" lon="3.01091">
        <ele>725</ele>
        <time>2011-11-27T08:18:22Z</time>
      </trkpt>
      <trkpt lat="45.89984" lon="3.01074">
        <ele>729</ele>
        <time>2011-11-27T08:18:32Z</time>
      </trkpt>
      <trkpt lat="45.89987" lon="3.01061">
        <ele>730</ele>
        <time>2011-11-27T08:18:37Z</time>
      </trkpt>
      <trkpt lat="45.90007" lon="3.00998">
        <ele>729</ele>
        <time>2011-11-27T08:18:58Z</time>
      </trkpt>
      <trkpt lat="45.90016" lon="3.00922">
        <ele>731</ele>
        <time>2011-11-27T08:19:21Z</time>
      </trkpt>
      <trkpt lat="45.90018" lon="3.00863">
        <ele>736</ele>
        <time>2011-11-27T08:19:39Z</time>
      </trkpt>
      <trkpt lat="45.90016" lon="3.00828">
        <ele>741</ele>
        <time>2011-11-27T08:19:52Z</time>
      </trkpt>
      <trkpt lat="45.9001" lon="3.00794">
        <ele>742</ele>
        <time>2011-11-27T08:20:04Z</time>
      </trkpt>
      <trkpt lat="45.90005" lon="3.00772">
        <ele>744</ele>
        <time>2011-11-27T08:20:13Z</time>
      </trkpt>
      <trkpt lat="45.90002" lon="3.00764">
        <ele>744</ele>
        <time>2011-11-27T08:20:17Z</time>
      </trkpt>
      <trkpt lat="45.89995" lon="3.00726">
        <ele>749</ele>
        <time>2011-11-27T08:20:32Z</time>
      </trkpt>
      <trkpt lat="45.89984" lon="3.00694">
        <ele>750</ele>
        <time>2011-11-27T08:20:46Z</time>
      </trkpt>
      <trkpt lat="45.89979" lon="3.00659">
        <ele>753</ele>
        <time>2011-11-27T08:21:00Z</time>
      </trkpt>
      <trkpt lat="45.89973" lon="3.00616">
        <ele>755</ele>
        <time>2011-11-27T08:21:17Z</time>
      </trkpt>
      <trkpt lat="45.8996" lon="3.00581">
        <ele>758</ele>
        <time>2011-11-27T08:21:32Z</time>
      </trkpt>
      <trkpt lat="45.89953" lon="3.0055">
        <ele>759</ele>
        <time>2011-11-27T08:21:45Z</time>
      </trkpt>
      <trkpt lat="45.89954" lon="3.00514">
        <ele>759</ele>
        <time>2011-11-27T08:22:00Z</time>
      </trkpt>
      <trkpt lat="45.89945" lon="3.00488">
        <ele>761</ele>
        <time>2011-11-27T08:22:11Z</time>
      </trkpt>
      <trkpt lat="45.89938" lon="3.00474">
        <ele>761</ele>
        <time>2011-11-27T08:22:17Z</time>
      </trkpt>
      <trkpt lat="45.89916" lon="3.00432">
        <ele>766</ele>
        <time>2011-11-27T08:22:36Z</time>
      </trkpt>
      <trkpt lat="45.89894" lon="3.00403">
        <ele>766</ele>
        <time>2011-11-27T08:22:51Z</time>
      </trkpt>
      <trkpt lat="45.89871" lon="3.00366">
        <ele>767</ele>
        <time>2011-11-27T08:23:08Z</time>
      </trkpt>
      <trkpt lat="45.89848" lon="3.00325">
        <ele>768</ele>
        <time>2011-11-27T08:23:23Z</time>
      </trkpt>
      <trkpt lat="45.89822" lon="3.00258">
        <ele>770</ele>
        <time>2011-11-27T08:23:40Z</time>
      </trkpt>
      <trkpt lat="45.89794" lon="3.00183">
        <ele>770</ele>
        <time>2011-11-27T08:23:59Z</time>
      </trkpt>
      <trkpt lat="45.89772" lon="3.00133">
        <ele>770</ele>
        <time>2011-11-27T08:24:13Z</time>
      </trkpt>
      <trkpt lat="45.89721" lon="3.00088">
        <ele>773</ele>
        <time>2011-11-27T08:24:31Z</time>
      </trkpt>
      <trkpt lat="45.89662" lon="3.00031">
        <ele>775</ele>
        <time>2011-11-27T08:24:52Z</time>
      </trkpt>
      <trkpt lat="45.89615" lon="2.99973">
        <ele>779</ele>
        <time>2011-11-27T08:25:11Z</time>
      </trkpt>
      <trkpt lat="45.89602" lon="2.99912">
        <ele>783</ele>
        <time>2011-11-27T08:25:27Z</time>
      </trkpt>
      <trkpt lat="45.89602" lon="2.99834">
        <ele>784</ele>
        <time>2011-11-27T08:25:46Z</time>
      </trkpt>
      <trkpt lat="45.89581" lon="2.99784">
        <ele>784</ele>
        <time>2011-11-27T08:25:59Z</time>
      </trkpt>
      <trkpt lat="45.89541" lon="2.9972">
        <ele>784</ele>
        <time>2011-11-27T08:26:17Z</time>
      </trkpt>
      <trkpt lat="45.89503" lon="2.99664">
        <ele>786</ele>
        <time>2011-11-27T08:26:34Z</time>
      </trkpt>
      <trkpt lat="45.89454" lon="2.99628">
        <ele>787</ele>
        <time>2011-11-27T08:26:51Z</time>
      </trkpt>
      <trkpt lat="45.89405" lon="2.99588">
        <ele>789</ele>
        <time>2011-11-27T08:27:08Z</time>
      </trkpt>
      <trkpt lat="45.89398" lon="2.99587">
        <ele>788</ele>
        <time>2011-11-27T08:27:10Z</time>
      </trkpt>
      <trkpt lat="45.89337" lon="2.99568">
        <ele>788</ele>
        <time>2011-11-27T08:27:21Z</time>
      </trkpt>
      <trkpt lat="45.89309" lon="2.99567">
        <ele>787</ele>
        <time>2011-11-27T08:27:25Z</time>
      </trkpt>
      <trkpt lat="45.8927" lon="2.99594">
        <ele>779</ele>
        <time>2011-11-27T08:27:31Z</time>
      </trkpt>
      <trkpt lat="45.89247" lon="2.99637">
        <ele>772</ele>
        <time>2011-11-27T08:27:38Z</time>
      </trkpt>
      <trkpt lat="45.89232" lon="2.99644">
        <ele>772</ele>
        <time>2011-11-27T08:27:41Z</time>
      </trkpt>
      <trkpt lat="45.89203" lon="2.99642">
        <ele>771</ele>
        <time>2011-11-27T08:27:45Z</time>
      </trkpt>
      <trkpt lat="45.89144" lon="2.99632">
        <ele>771</ele>
        <time>2011-11-27T08:27:52Z</time>
      </trkpt>
      <trkpt lat="45.89126" lon="2.99653">
        <ele>771</ele>
        <time>2011-11-27T08:27:56Z</time>
      </trkpt>
      <trkpt lat="45.89121" lon="2.99667">
        <ele>765</ele>
        <time>2011-11-27T08:27:58Z</time>
      </trkpt>
      <trkpt lat="45.89096" lon="2.99687">
        <ele>766</ele>
        <time>2011-11-27T08:28:05Z</time>
      </trkpt>
      <trkpt lat="45.89068" lon="2.99686">
        <ele>770</ele>
        <time>2011-11-27T08:28:20Z</time>
      </trkpt>
      <trkpt lat="45.89069" lon="2.99687">
        <ele>770</ele>
        <time>2011-11-27T08:28:28Z</time>
      </trkpt>
      <trkpt lat="45.89077" lon="2.99687">
        <ele>770</ele>
        <time>2011-11-27T08:28:34Z</time>
      </trkpt>
      <trkpt lat="45.89073" lon="2.99688">
        <ele>770</ele>
        <time>2011-11-27T08:28:46Z</time>
      </trkpt>
      <trkpt lat="45.89052" lon="2.99683">
        <ele>770</ele>
        <time>2011-11-27T08:29:00Z</time>
      </trkpt>
      <trkpt lat="45.89019" lon="2.99688">
        <ele>773</ele>
        <time>2011-11-27T08:29:14Z</time>
      </trkpt>
      <trkpt lat="45.88989" lon="2.99707">
        <ele>774</ele>
        <time>2011-11-27T08:29:26Z</time>
      </trkpt>
      <trkpt lat="45.88933" lon="2.99767">
        <ele>768</ele>
        <time>2011-11-27T08:29:36Z</time>
      </trkpt>
      <trkpt lat="45.88927" lon="2.99774">
        <ele>768</ele>
        <time>2011-11-27T08:29:37Z</time>
      </trkpt>
      <trkpt lat="45.88912" lon="2.99817">
        <ele>769</ele>
        <time>2011-11-27T08:29:41Z</time>
      </trkpt>
      <trkpt lat="45.88908" lon="2.99885">
        <ele>766</ele>
        <time>2011-11-27T08:29:47Z</time>
      </trkpt>
      <trkpt lat="45.88935" lon="3.00002">
        <ele>759</ele>
        <time>2011-11-27T08:29:59Z</time>
      </trkpt>
      <trkpt lat="45.88936" lon="3.00051">
        <ele>759</ele>
        <time>2011-11-27T08:30:04Z</time>
      </trkpt>
      <trkpt lat="45.88935" lon="3.00069">
        <ele>759</ele>
        <time>2011-11-27T08:30:06Z</time>
      </trkpt>
      <trkpt lat="45.88935" lon="3.00095">
        <ele>758</ele>
        <time>2011-11-27T08:30:09Z</time>
      </trkpt>
      <trkpt lat="45.88939" lon="3.00117">
        <ele>757</ele>
        <time>2011-11-27T08:30:12Z</time>
      </trkpt>
      <trkpt lat="45.88983" lon="3.00232">
        <ele>754</ele>
        <time>2011-11-27T08:30:26Z</time>
      </trkpt>
      <trkpt lat="45.89022" lon="3.00327">
        <ele>749</ele>
        <time>2011-11-27T08:30:35Z</time>
      </trkpt>
      <trkpt lat="45.89041" lon="3.00363">
        <ele>746</ele>
        <time>2011-11-27T08:30:41Z</time>
      </trkpt>
      <trkpt lat="45.8908" lon="3.00379">
        <ele>745</ele>
        <time>2011-11-27T08:30:51Z</time>
      </trkpt>
      <trkpt lat="45.89135" lon="3.00386">
        <ele>747</ele>
        <time>2011-11-27T08:31:06Z</time>
      </trkpt>
      <trkpt lat="45.89152" lon="3.00385">
        <ele>748</ele>
        <time>2011-11-27T08:31:10Z</time>
      </trkpt>
      <trkpt lat="45.8921" lon="3.00385">
        <ele>754</ele>
        <time>2011-11-27T08:31:25Z</time>
      </trkpt>
      <trkpt lat="45.89266" lon="3.00403">
        <ele>759</ele>
        <time>2011-11-27T08:31:41Z</time>
      </trkpt>
      <trkpt lat="45.89315" lon="3.00407">
        <ele>761</ele>
        <time>2011-11-27T08:31:56Z</time>
      </trkpt>
      <trkpt lat="45.89372" lon="3.00395">
        <ele>763</ele>
        <time>2011-11-27T08:32:13Z</time>
      </trkpt>
      <trkpt lat="45.89439" lon="3.00375">
        <ele>766</ele>
        <time>2011-11-27T08:32:32Z</time>
      </trkpt>
      <trkpt lat="45.89493" lon="3.00389">
        <ele>767</ele>
        <time>2011-11-27T08:32:47Z</time>
      </trkpt>
      <trkpt lat="45.89533" lon="3.00417">
        <ele>770</ele>
        <time>2011-11-27T08:33:00Z</time>
      </trkpt>
      <trkpt lat="45.8958" lon="3.00467">
        <ele>771</ele>
        <time>2011-11-27T08:33:17Z</time>
      </trkpt>
      <trkpt lat="45.8963" lon="3.00517">
        <ele>773</ele>
        <time>2011-11-27T08:33:34Z</time>
      </trkpt>
      <trkpt lat="45.89644" lon="3.00532">
        <ele>773</ele>
        <time>2011-11-27T08:33:40Z</time>
      </trkpt>
      <trkpt lat="45.89644" lon="3.00537">
        <ele>772</ele>
        <time>2011-11-27T08:33:55Z</time>
      </trkpt>
      <trkpt lat="45.89631" lon="3.00565">
        <ele>772</ele>
        <time>2011-11-27T08:35:15Z</time>
      </trkpt>
      <trkpt lat="45.89629" lon="3.00569">
        <ele>772</ele>
        <time>2011-11-27T08:35:16Z</time>
      </trkpt>
      <trkpt lat="45.89603" lon="3.00632">
        <ele>770</ele>
        <time>2011-11-27T08:35:26Z</time>
      </trkpt>
      <trkpt lat="45.89583" lon="3.00665">
        <ele>770</ele>
        <time>2011-11-27T08:35:31Z</time>
      </trkpt>
      <trkpt lat="45.8952" lon="3.00717">
        <ele>768</ele>
        <time>2011-11-27T08:35:42Z</time>
      </trkpt>
      <trkpt lat="45.8945" lon="3.00801">
        <ele>764</ele>
        <time>2011-11-27T08:35:54Z</time>
      </trkpt>
      <trkpt lat="45.89411" lon="3.00862">
        <ele>759</ele>
        <time>2011-11-27T08:36:01Z</time>
      </trkpt>
      <trkpt lat="45.89386" lon="3.00909">
        <ele>758</ele>
        <time>2011-11-27T08:36:06Z</time>
      </trkpt>
      <trkpt lat="45.89334" lon="3.01019">
        <ele>755</ele>
        <time>2011-11-27T08:36:18Z</time>
      </trkpt>
      <trkpt lat="45.89268" lon="3.01157">
        <ele>754</ele>
        <time>2011-11-27T08:36:33Z</time>
      </trkpt>
      <trkpt lat="45.89235" lon="3.01207">
        <ele>753</ele>
        <time>2011-11-27T08:36:40Z</time>
      </trkpt>
      <trkpt lat="45.89197" lon="3.01294">
        <ele>751</ele>
        <time>2011-11-27T08:36:53Z</time>
      </trkpt>
      <trkpt lat="45.89171" lon="3.0133">
        <ele>749</ele>
        <time>2011-11-27T08:37:00Z</time>
      </trkpt>
      <trkpt lat="45.8914" lon="3.0136">
        <ele>747</ele>
        <time>2011-11-27T08:37:06Z</time>
      </trkpt>
      <trkpt lat="45.89119" lon="3.01382">
        <ele>747</ele>
        <time>2011-11-27T08:37:10Z</time>
      </trkpt>
      <trkpt lat="45.89113" lon="3.01412">
        <ele>747</ele>
        <time>2011-11-27T08:37:15Z</time>
      </trkpt>
      <trkpt lat="45.89142" lon="3.01481">
        <ele>749</ele>
        <time>2011-11-27T08:37:29Z</time>
      </trkpt>
      <trkpt lat="45.89146" lon="3.01508">
        <ele>748</ele>
        <time>2011-11-27T08:37:33Z</time>
      </trkpt>
      <trkpt lat="45.89155" lon="3.01618">
        <ele>744</ele>
        <time>2011-11-27T08:37:43Z</time>
      </trkpt>
      <trkpt lat="45.89183" lon="3.01771">
        <ele>741</ele>
        <time>2011-11-27T08:37:57Z</time>
      </trkpt>
      <trkpt lat="45.89177" lon="3.01883">
        <ele>740</ele>
        <time>2011-11-27T08:38:09Z</time>
      </trkpt>
      <trkpt lat="45.89181" lon="3.0192">
        <ele>740</ele>
        <time>2011-11-27T08:38:13Z</time>
      </trkpt>
      <trkpt lat="45.89168" lon="3.0196">
        <ele>738</ele>
        <time>2011-11-27T08:38:19Z</time>
      </trkpt>
      <trkpt lat="45.89139" lon="3.01974">
        <ele>738</ele>
        <time>2011-11-27T08:38:25Z</time>
      </trkpt>
      <trkpt lat="45.89065" lon="3.02014">
        <ele>735</ele>
        <time>2011-11-27T08:38:39Z</time>
      </trkpt>
      <trkpt lat="45.8906" lon="3.02017">
        <ele>735</ele>
        <time>2011-11-27T08:38:40Z</time>
      </trkpt>
      <trkpt lat="45.88973" lon="3.02096">
        <ele>729</ele>
        <time>2011-11-27T08:38:57Z</time>
      </trkpt>
      <trkpt lat="45.88956" lon="3.02114">
        <ele>729</ele>
        <time>2011-11-27T08:39:00Z</time>
      </trkpt>
      <trkpt lat="45.88929" lon="3.02129">
        <ele>728</ele>
        <time>2011-11-27T08:39:04Z</time>
      </trkpt>
      <trkpt lat="45.88851" lon="3.02144">
        <ele>731</ele>
        <time>2011-11-27T08:39:16Z</time>
      </trkpt>
      <trkpt lat="45.88847" lon="3.02167">
        <ele>730</ele>
        <time>2011-11-27T08:39:21Z</time>
      </trkpt>
      <trkpt lat="45.88864" lon="3.0219">
        <ele>728</ele>
        <time>2011-11-27T08:39:25Z</time>
      </trkpt>
      <trkpt lat="45.88872" lon="3.02208">
        <ele>727</ele>
        <time>2011-11-27T08:39:28Z</time>
      </trkpt>
      <trkpt lat="45.88878" lon="3.02241">
        <ele>726</ele>
        <time>2011-11-27T08:39:32Z</time>
      </trkpt>
      <trkpt lat="45.88889" lon="3.02278">
        <ele>723</ele>
        <time>2011-11-27T08:39:36Z</time>
      </trkpt>
      <trkpt lat="45.88893" lon="3.02332">
        <ele>722</ele>
        <time>2011-11-27T08:39:42Z</time>
      </trkpt>
      <trkpt lat="45.88889" lon="3.02354">
        <ele>721</ele>
        <time>2011-11-27T08:39:45Z</time>
      </trkpt>
      <trkpt lat="45.88888" lon="3.02387">
        <ele>721</ele>
        <time>2011-11-27T08:39:49Z</time>
      </trkpt>
      <trkpt lat="45.88886" lon="3.02416">
        <ele>720</ele>
        <time>2011-11-27T08:39:54Z</time>
      </trkpt>
      <trkpt lat="45.88899" lon="3.02421">
        <ele>716</ele>
        <time>2011-11-27T08:40:00Z</time>
      </trkpt>
      <trkpt lat="45.8893" lon="3.02398">
        <ele>712</ele>
        <time>2011-11-27T08:40:06Z</time>
      </trkpt>
      <trkpt lat="45.88951" lon="3.02379">
        <ele>710</ele>
        <time>2011-11-27T08:40:12Z</time>
      </trkpt>
      <trkpt lat="45.8896" lon="3.02432">
        <ele>706</ele>
        <time>2011-11-27T08:40:20Z</time>
      </trkpt>
      <trkpt lat="45.88958" lon="3.02469">
        <ele>705</ele>
        <time>2011-11-27T08:40:24Z</time>
      </trkpt>
      <trkpt lat="45.88954" lon="3.02498">
        <ele>705</ele>
        <time>2011-11-27T08:40:27Z</time>
      </trkpt>
      <trkpt lat="45.88938" lon="3.02561">
        <ele>700</ele>
        <time>2011-11-27T08:40:36Z</time>
      </trkpt>
      <trkpt lat="45.88936" lon="3.02569">
        <ele>700</ele>
        <time>2011-11-27T08:40:45Z</time>
      </trkpt>
      <trkpt lat="45.88949" lon="3.02529">
        <ele>701</ele>
        <time>2011-11-27T08:40:58Z</time>
      </trkpt>
      <trkpt lat="45.8896" lon="3.02458">
        <ele>705</ele>
        <time>2011-11-27T08:41:14Z</time>
      </trkpt>
      <trkpt lat="45.88958" lon="3.02405">
        <ele>710</ele>
        <time>2011-11-27T08:41:26Z</time>
      </trkpt>
      <trkpt lat="45.88949" lon="3.02373">
        <ele>711</ele>
        <time>2011-11-27T08:41:34Z</time>
      </trkpt>
      <trkpt lat="45.88953" lon="3.02359">
        <ele>711</ele>
        <time>2011-11-27T08:41:38Z</time>
      </trkpt>
      <trkpt lat="45.88965" lon="3.02327">
        <ele>712</ele>
        <time>2011-11-27T08:41:43Z</time>
      </trkpt>
      <trkpt lat="45.88987" lon="3.02332">
        <ele>709</ele>
        <time>2011-11-27T08:41:48Z</time>
      </trkpt>
      <trkpt lat="45.88996" lon="3.02349">
        <ele>707</ele>
        <time>2011-11-27T08:41:50Z</time>
      </trkpt>
      <trkpt lat="45.89057" lon="3.02456">
        <ele>695</ele>
        <time>2011-11-27T08:42:00Z</time>
      </trkpt>
      <trkpt lat="45.8909" lon="3.0251">
        <ele>689</ele>
        <time>2011-11-27T08:42:05Z</time>
      </trkpt>
      <trkpt lat="45.89111" lon="3.02597">
        <ele>685</ele>
        <time>2011-11-27T08:42:13Z</time>
      </trkpt>
      <trkpt lat="45.89125" lon="3.02641">
        <ele>685</ele>
        <time>2011-11-27T08:42:19Z</time>
      </trkpt>
      <trkpt lat="45.89141" lon="3.02683">
        <ele>683</ele>
        <time>2011-11-27T08:42:29Z</time>
      </trkpt>
      <trkpt lat="45.8914" lon="3.02693">
        <ele>683</ele>
        <time>2011-11-27T08:42:33Z</time>
      </trkpt>
      <trkpt lat="45.89133" lon="3.02734">
        <ele>682</ele>
        <time>2011-11-27T08:42:45Z</time>
      </trkpt>
      <trkpt lat="45.89131" lon="3.02756">
        <ele>678</ele>
        <time>2011-11-27T08:42:50Z</time>
      </trkpt>
      <trkpt lat="45.89146" lon="3.02787">
        <ele>677</ele>
        <time>2011-11-27T08:42:56Z</time>
      </trkpt>
      <trkpt lat="45.89165" lon="3.02798">
        <ele>677</ele>
        <time>2011-11-27T08:43:00Z</time>
      </trkpt>
      <trkpt lat="45.89182" lon="3.02819">
        <ele>680</ele>
        <time>2011-11-27T08:43:04Z</time>
      </trkpt>
      <trkpt lat="45.89244" lon="3.0291">
        <ele>673</ele>
        <time>2011-11-27T08:43:16Z</time>
      </trkpt>
      <trkpt lat="45.89321" lon="3.03005">
        <ele>661</ele>
        <time>2011-11-27T08:43:27Z</time>
      </trkpt>
      <trkpt lat="45.89347" lon="3.03065">
        <ele>658</ele>
        <time>2011-11-27T08:43:33Z</time>
      </trkpt>
      <trkpt lat="45.89369" lon="3.03184">
        <ele>655</ele>
        <time>2011-11-27T08:43:45Z</time>
      </trkpt>
      <trkpt lat="45.89385" lon="3.03232">
        <ele>656</ele>
        <time>2011-11-27T08:43:51Z</time>
      </trkpt>
      <trkpt lat="45.89389" lon="3.03278">
        <ele>656</ele>
        <time>2011-11-27T08:43:57Z</time>
      </trkpt>
      <trkpt lat="45.89388" lon="3.03334">
        <ele>657</ele>
        <time>2011-11-27T08:44:07Z</time>
      </trkpt>
      <trkpt lat="45.8938" lon="3.03402">
        <ele>658</ele>
        <time>2011-11-27T08:44:18Z</time>
      </trkpt>
      <trkpt lat="45.89365" lon="3.03407">
        <ele>659</ele>
        <time>2011-11-27T08:44:26Z</time>
      </trkpt>
      <trkpt lat="45.89363" lon="3.03408">
        <ele>659</ele>
        <time>2011-11-27T08:44:27Z</time>
      </trkpt>
      <trkpt lat="45.8934" lon="3.03432">
        <ele>661</ele>
        <time>2011-11-27T08:44:41Z</time>
      </trkpt>
      <trkpt lat="45.89334" lon="3.03433">
        <ele>661</ele>
        <time>2011-11-27T08:44:44Z</time>
      </trkpt>
      <trkpt lat="45.89314" lon="3.03429">
        <ele>656</ele>
        <time>2011-11-27T08:44:55Z</time>
      </trkpt>
      <trkpt lat="45.89285" lon="3.03434">
        <ele>652</ele>
        <time>2011-11-27T08:45:02Z</time>
      </trkpt>
      <trkpt lat="45.89278" lon="3.03429">
        <ele>651</ele>
        <time>2011-11-27T08:45:04Z</time>
      </trkpt>
      <trkpt lat="45.89273" lon="3.03446">
        <ele>650</ele>
        <time>2011-11-27T08:45:09Z</time>
      </trkpt>
      <trkpt lat="45.89274" lon="3.03464">
        <ele>650</ele>
        <time>2011-11-27T08:45:11Z</time>
      </trkpt>
      <trkpt lat="45.89279" lon="3.0352">
        <ele>646</ele>
        <time>2011-11-27T08:45:18Z</time>
      </trkpt>
      <trkpt lat="45.89282" lon="3.0354">
        <ele>646</ele>
        <time>2011-11-27T08:45:21Z</time>
      </trkpt>
      <trkpt lat="45.89296" lon="3.03592">
        <ele>646</ele>
        <time>2011-11-27T08:45:31Z</time>
      </trkpt>
      <trkpt lat="45.893" lon="3.03651">
        <ele>646</ele>
        <time>2011-11-27T08:45:42Z</time>
      </trkpt>
      <trkpt lat="45.89305" lon="3.03696">
        <ele>647</ele>
        <time>2011-11-27T08:45:50Z</time>
      </trkpt>
      <trkpt lat="45.8931" lon="3.03732">
        <ele>648</ele>
        <time>2011-11-27T08:45:57Z</time>
      </trkpt>
      <trkpt lat="45.89308" lon="3.03753">
        <ele>649</ele>
        <time>2011-11-27T08:46:01Z</time>
      </trkpt>
      <trkpt lat="45.89296" lon="3.03759">
        <ele>648</ele>
        <time>2011-11-27T08:46:05Z</time>
      </trkpt>
      <trkpt lat="45.89283" lon="3.03763">
        <ele>646</ele>
        <time>2011-11-27T08:46:13Z</time>
      </trkpt>
      <trkpt lat="45.89283" lon="3.03766">
        <ele>646</ele>
        <time>2011-11-27T08:46:36Z</time>
      </trkpt>
      <trkpt lat="45.89253" lon="3.03755">
        <ele>642</ele>
        <time>2011-11-27T08:46:44Z</time>
      </trkpt>
      <trkpt lat="45.89219" lon="3.03722">
        <ele>630</ele>
        <time>2011-11-27T08:46:51Z</time>
      </trkpt>
      <trkpt lat="45.89191" lon="3.03699">
        <ele>625</ele>
        <time>2011-11-27T08:46:56Z</time>
      </trkpt>
      <trkpt lat="45.89173" lon="3.03694">
        <ele>623</ele>
        <time>2011-11-27T08:46:59Z</time>
      </trkpt>
      <trkpt lat="45.89157" lon="3.03709">
        <ele>608</ele>
        <time>2011-11-27T08:47:03Z</time>
      </trkpt>
      <trkpt lat="45.89151" lon="3.03722">
        <ele>609</ele>
        <time>2011-11-27T08:47:05Z</time>
      </trkpt>
      <trkpt lat="45.89151" lon="3.03748">
        <ele>614</ele>
        <time>2011-11-27T08:47:10Z</time>
      </trkpt>
      <trkpt lat="45.89167" lon="3.03786">
        <ele>628</ele>
        <time>2011-11-27T08:47:15Z</time>
      </trkpt>
      <trkpt lat="45.89177" lon="3.03812">
        <ele>626</ele>
        <time>2011-11-27T08:47:18Z</time>
      </trkpt>
      <trkpt lat="45.89181" lon="3.0383">
        <ele>624</ele>
        <time>2011-11-27T08:47:20Z</time>
      </trkpt>
      <trkpt lat="45.89187" lon="3.03878">
        <ele>627</ele>
        <time>2011-11-27T08:47:26Z</time>
      </trkpt>
      <trkpt lat="45.89185" lon="3.03914">
        <ele>625</ele>
        <time>2011-11-27T08:47:31Z</time>
      </trkpt>
      <trkpt lat="45.89154" lon="3.03936">
        <ele>619</ele>
        <time>2011-11-27T08:47:37Z</time>
      </trkpt>
      <trkpt lat="45.89132" lon="3.03939">
        <ele>617</ele>
        <time>2011-11-27T08:47:40Z</time>
      </trkpt>
      <trkpt lat="45.89106" lon="3.03952">
        <ele>615</ele>
        <time>2011-11-27T08:47:44Z</time>
      </trkpt>
      <trkpt lat="45.89086" lon="3.03954">
        <ele>614</ele>
        <time>2011-11-27T08:47:47Z</time>
      </trkpt>
      <trkpt lat="45.89053" lon="3.03967">
        <ele>600</ele>
        <time>2011-11-27T08:47:54Z</time>
      </trkpt>
      <trkpt lat="45.89036" lon="3.03979">
        <ele>598</ele>
        <time>2011-11-27T08:48:02Z</time>
      </trkpt>
      <trkpt lat="45.89036" lon="3.03981">
        <ele>598</ele>
        <time>2011-11-27T08:48:42Z</time>
      </trkpt>
      <trkpt lat="45.89024" lon="3.03997">
        <ele>597</ele>
        <time>2011-11-27T08:48:48Z</time>
      </trkpt>
      <trkpt lat="45.89015" lon="3.0402">
        <ele>604</ele>
        <time>2011-11-27T08:48:52Z</time>
      </trkpt>
      <trkpt lat="45.89012" lon="3.04084">
        <ele>601</ele>
        <time>2011-11-27T08:49:01Z</time>
      </trkpt>
      <trkpt lat="45.88996" lon="3.04098">
        <ele>587</ele>
        <time>2011-11-27T08:49:07Z</time>
      </trkpt>
      <trkpt lat="45.88971" lon="3.04091">
        <ele>581</ele>
        <time>2011-11-27T08:49:10Z</time>
      </trkpt>
      <trkpt lat="45.88936" lon="3.04074">
        <ele>575</ele>
        <time>2011-11-27T08:49:17Z</time>
      </trkpt>
      <trkpt lat="45.88939" lon="3.04086">
        <ele>572</ele>
        <time>2011-11-27T08:49:19Z</time>
      </trkpt>
      <trkpt lat="45.88949" lon="3.04108">
        <ele>574</ele>
        <time>2011-11-27T08:49:22Z</time>
      </trkpt>
      <trkpt lat="45.88962" lon="3.04132">
        <ele>575</ele>
        <time>2011-11-27T08:49:27Z</time>
      </trkpt>
      <trkpt lat="45.88969" lon="3.04143">
        <ele>575</ele>
        <time>2011-11-27T08:49:29Z</time>
      </trkpt>
      <trkpt lat="45.88979" lon="3.04159">
        <ele>577</ele>
        <time>2011-11-27T08:49:33Z</time>
      </trkpt>
      <trkpt lat="45.88985" lon="3.04179">
        <ele>569</ele>
        <time>2011-11-27T08:49:36Z</time>
      </trkpt>
      <trkpt lat="45.88992" lon="3.04221">
        <ele>561</ele>
        <time>2011-11-27T08:49:46Z</time>
      </trkpt>
      <trkpt lat="45.88994" lon="3.04225">
        <ele>561</ele>
        <time>2011-11-27T08:49:59Z</time>
      </trkpt>
      <trkpt lat="45.88994" lon="3.04226">
        <ele>561</ele>
        <time>2011-11-27T08:50:35Z</time>
      </trkpt>
      <trkpt lat="45.88993" lon="3.04225">
        <ele>561</ele>
        <time>2011-11-27T08:50:47Z</time>
      </trkpt>
      <trkpt lat="45.88998" lon="3.0425">
        <ele>561</ele>
        <time>2011-11-27T08:50:53Z</time>
      </trkpt>
      <trkpt lat="45.89" lon="3.04258">
        <ele>566</ele>
        <time>2011-11-27T08:50:55Z</time>
      </trkpt>
      <trkpt lat="45.89007" lon="3.04269">
        <ele>567</ele>
        <time>2011-11-27T08:50:59Z</time>
      </trkpt>
      <trkpt lat="45.89018" lon="3.04286">
        <ele>568</ele>
        <time>2011-11-27T08:51:02Z</time>
      </trkpt>
      <trkpt lat="45.89031" lon="3.04337">
        <ele>551</ele>
        <time>2011-11-27T08:51:09Z</time>
      </trkpt>
      <trkpt lat="45.89044" lon="3.04365">
        <ele>552</ele>
        <time>2011-11-27T08:51:13Z</time>
      </trkpt>
      <trkpt lat="45.89066" lon="3.04399">
        <ele>552</ele>
        <time>2011-11-27T08:51:18Z</time>
      </trkpt>
      <trkpt lat="45.89083" lon="3.04424">
        <ele>552</ele>
        <time>2011-11-27T08:51:22Z</time>
      </trkpt>
      <trkpt lat="45.89104" lon="3.04442">
        <ele>549</ele>
        <time>2011-11-27T08:51:26Z</time>
      </trkpt>
      <trkpt lat="45.89135" lon="3.04459">
        <ele>549</ele>
        <time>2011-11-27T08:51:34Z</time>
      </trkpt>
      <trkpt lat="45.89153" lon="3.04472">
        <ele>547</ele>
        <time>2011-11-27T08:51:43Z</time>
      </trkpt>
      <trkpt lat="45.89153" lon="3.04472">
        <ele>547</ele>
        <time>2011-11-27T08:51:51Z</time>
      </trkpt>
      <trkpt lat="45.8916" lon="3.04473">
        <ele>547</ele>
        <time>2011-11-27T08:51:57Z</time>
      </trkpt>
      <trkpt lat="45.8918" lon="3.04482">
        <ele>544</ele>
        <time>2011-11-27T08:52:08Z</time>
      </trkpt>
      <trkpt lat="45.892" lon="3.04487">
        <ele>544</ele>
        <time>2011-11-27T08:52:14Z</time>
      </trkpt>
      <trkpt lat="45.89202" lon="3.04494">
        <ele>543</ele>
        <time>2011-11-27T08:52:22Z</time>
      </trkpt>
      <trkpt lat="45.89195" lon="3.04494">
        <ele>543</ele>
        <time>2011-11-27T08:52:38Z</time>
      </trkpt>
      <trkpt lat="45.89179" lon="3.04491">
        <ele>543</ele>
        <time>2011-11-27T08:52:51Z</time>
      </trkpt>
      <trkpt lat="45.89171" lon="3.04489">
        <ele>543</ele>
        <time>2011-11-27T08:52:53Z</time>
      </trkpt>
      <trkpt lat="45.89149" lon="3.04488">
        <ele>544</ele>
        <time>2011-11-27T08:52:57Z</time>
      </trkpt>
      <trkpt lat="45.89125" lon="3.04481">
        <ele>545</ele>
        <time>2011-11-27T08:53:01Z</time>
      </trkpt>
      <trkpt lat="45.89113" lon="3.04479">
        <ele>544</ele>
        <time>2011-11-27T08:53:03Z</time>
      </trkpt>
      <trkpt lat="45.89102" lon="3.0448">
        <ele>542</ele>
        <time>2011-11-27T08:53:05Z</time>
      </trkpt>
      <trkpt lat="45.89087" lon="3.04473">
        <ele>542</ele>
        <time>2011-11-27T08:53:10Z</time>
      </trkpt>
      <trkpt lat="45.89071" lon="3.04466">
        <ele>532</ele>
        <time>2011-11-27T08:53:13Z</time>
      </trkpt>
      <trkpt lat="45.89046" lon="3.04446">
        <ele>531</ele>
        <time>2011-11-27T08:53:21Z</time>
      </trkpt>
      <trkpt lat="45.89042" lon="3.04441">
        <ele>531</ele>
        <time>2011-11-27T08:53:29Z</time>
      </trkpt>
      <trkpt lat="45.89039" lon="3.04438">
        <ele>531</ele>
        <time>2011-11-27T08:53:33Z</time>
      </trkpt>
      <trkpt lat="45.89021" lon="3.04422">
        <ele>529</ele>
        <time>2011-11-27T08:53:40Z</time>
      </trkpt>
      <trkpt lat="45.8901" lon="3.04406">
        <ele>537</ele>
        <time>2011-11-27T08:53:43Z</time>
      </trkpt>
      <trkpt lat="45.88989" lon="3.04384">
        <ele>524</ele>
        <time>2011-11-27T08:53:47Z</time>
      </trkpt>
      <trkpt lat="45.8896" lon="3.0433">
        <ele>534</ele>
        <time>2011-11-27T08:53:55Z</time>
      </trkpt>
      <trkpt lat="45.88951" lon="3.0432">
        <ele>532</ele>
        <time>2011-11-27T08:53:57Z</time>
      </trkpt>
      <trkpt lat="45.88934" lon="3.043">
        <ele>531</ele>
        <time>2011-11-27T08:54:01Z</time>
      </trkpt>
      <trkpt lat="45.88926" lon="3.04295">
        <ele>531</ele>
        <time>2011-11-27T08:54:08Z</time>
      </trkpt>
      <trkpt lat="45.88927" lon="3.04296">
        <ele>530</ele>
        <time>2011-11-27T08:54:09Z</time>
      </trkpt>
      <trkpt lat="45.88935" lon="3.0431">
        <ele>529</ele>
        <time>2011-11-27T08:54:27Z</time>
      </trkpt>
      <trkpt lat="45.88944" lon="3.04329">
        <ele>528</ele>
        <time>2011-11-27T08:54:37Z</time>
      </trkpt>
      <trkpt lat="45.8895" lon="3.0434">
        <ele>520</ele>
        <time>2011-11-27T08:54:39Z</time>
      </trkpt>
      <trkpt lat="45.88959" lon="3.04378">
        <ele>520</ele>
        <time>2011-11-27T08:54:44Z</time>
      </trkpt>
      <trkpt lat="45.88964" lon="3.04399">
        <ele>520</ele>
        <time>2011-11-27T08:54:47Z</time>
      </trkpt>
      <trkpt lat="45.88986" lon="3.04442">
        <ele>511</ele>
        <time>2011-11-27T08:54:53Z</time>
      </trkpt>
      <trkpt lat="45.89018" lon="3.04518">
        <ele>508</ele>
        <time>2011-11-27T08:55:02Z</time>
      </trkpt>
      <trkpt lat="45.89034" lon="3.04546">
        <ele>507</ele>
        <time>2011-11-27T08:55:05Z</time>
      </trkpt>
      <trkpt lat="45.89084" lon="3.04595">
        <ele>502</ele>
        <time>2011-11-27T08:55:12Z</time>
      </trkpt>
      <trkpt lat="45.89107" lon="3.04613">
        <ele>499</ele>
        <time>2011-11-27T08:55:16Z</time>
      </trkpt>
      <trkpt lat="45.89118" lon="3.04622">
        <ele>498</ele>
        <time>2011-11-27T08:55:23Z</time>
      </trkpt>
      <trkpt lat="45.89121" lon="3.04623">
        <ele>498</ele>
        <time>2011-11-27T08:55:29Z</time>
      </trkpt>
      <trkpt lat="45.89133" lon="3.04631">
        <ele>497</ele>
        <time>2011-11-27T08:55:35Z</time>
      </trkpt>
      <trkpt lat="45.89138" lon="3.04637">
        <ele>497</ele>
        <time>2011-11-27T08:55:37Z</time>
      </trkpt>
      <trkpt lat="45.89161" lon="3.04642">
        <ele>495</ele>
        <time>2011-11-27T08:55:41Z</time>
      </trkpt>
      <trkpt lat="45.89182" lon="3.04629">
        <ele>498</ele>
        <time>2011-11-27T08:55:46Z</time>
      </trkpt>
      <trkpt lat="45.89204" lon="3.04614">
        <ele>500</ele>
        <time>2011-11-27T08:55:57Z</time>
      </trkpt>
      <trkpt lat="45.89207" lon="3.04613">
        <ele>500</ele>
        <time>2011-11-27T08:55:59Z</time>
      </trkpt>
      <trkpt lat="45.89238" lon="3.04601">
        <ele>502</ele>
        <time>2011-11-27T08:56:10Z</time>
      </trkpt>
      <trkpt lat="45.89256" lon="3.04566">
        <ele>516</ele>
        <time>2011-11-27T08:56:20Z</time>
      </trkpt>
      <trkpt lat="45.89265" lon="3.04551">
        <ele>521</ele>
        <time>2011-11-27T08:56:25Z</time>
      </trkpt>
      <trkpt lat="45.89273" lon="3.0456">
        <ele>520</ele>
        <time>2011-11-27T08:56:32Z</time>
      </trkpt>
      <trkpt lat="45.89272" lon="3.04574">
        <ele>518</ele>
        <time>2011-11-27T08:56:35Z</time>
      </trkpt>
      <trkpt lat="45.89284" lon="3.04624">
        <ele>505</ele>
        <time>2011-11-27T08:56:46Z</time>
      </trkpt>
      <trkpt lat="45.89298" lon="3.04646">
        <ele>505</ele>
        <time>2011-11-27T08:56:56Z</time>
      </trkpt>
      <trkpt lat="45.89319" lon="3.04673">
        <ele>498</ele>
        <time>2011-11-27T08:57:08Z</time>
      </trkpt>
      <trkpt lat="45.89343" lon="3.04693">
        <ele>502</ele>
        <time>2011-11-27T08:57:19Z</time>
      </trkpt>
      <trkpt lat="45.89378" lon="3.04715">
        <ele>501</ele>
        <time>2011-11-27T08:57:34Z</time>
      </trkpt>
      <trkpt lat="45.89411" lon="3.04718">
        <ele>502</ele>
        <time>2011-11-27T08:57:47Z</time>
      </trkpt>
      <trkpt lat="45.89443" lon="3.04681">
        <ele>512</ele>
        <time>2011-11-27T08:58:02Z</time>
      </trkpt>
      <trkpt lat="45.8945" lon="3.04677">
        <ele>512</ele>
        <time>2011-11-27T08:58:05Z</time>
      </trkpt>
      <trkpt lat="45.89468" lon="3.04698">
        <ele>510</ele>
        <time>2011-11-27T08:58:16Z</time>
      </trkpt>
      <trkpt lat="45.89476" lon="3.04707">
        <ele>509</ele>
        <time>2011-11-27T08:58:18Z</time>
      </trkpt>
      <trkpt lat="45.89535" lon="3.04733">
        <ele>510</ele>
        <time>2011-11-27T08:58:28Z</time>
      </trkpt>
      <trkpt lat="45.89548" lon="3.04737">
        <ele>510</ele>
        <time>2011-11-27T08:58:30Z</time>
      </trkpt>
      <trkpt lat="45.89625" lon="3.04792">
        <ele>491</ele>
        <time>2011-11-27T08:58:40Z</time>
      </trkpt>
      <trkpt lat="45.89649" lon="3.0481">
        <ele>488</ele>
        <time>2011-11-27T08:58:43Z</time>
      </trkpt>
      <trkpt lat="45.89698" lon="3.0481">
        <ele>479</ele>
        <time>2011-11-27T08:58:49Z</time>
      </trkpt>
      <trkpt lat="45.89756" lon="3.04777">
        <ele>465</ele>
        <time>2011-11-27T08:58:56Z</time>
      </trkpt>
      <trkpt lat="45.89827" lon="3.04742">
        <ele>460</ele>
        <time>2011-11-27T08:59:04Z</time>
      </trkpt>
      <trkpt lat="45.89842" lon="3.04741">
        <ele>453</ele>
        <time>2011-11-27T08:59:09Z</time>
      </trkpt>
      <trkpt lat="45.89862" lon="3.04721">
        <ele>457</ele>
        <time>2011-11-27T08:59:24Z</time>
      </trkpt>
      <trkpt lat="45.8988" lon="3.04713">
        <ele>457</ele>
        <time>2011-11-27T08:59:32Z</time>
      </trkpt>
      <trkpt lat="45.8989" lon="3.04733">
        <ele>455</ele>
        <time>2011-11-27T08:59:36Z</time>
      </trkpt>
      <trkpt lat="45.89887" lon="3.0479">
        <ele>444</ele>
        <time>2011-11-27T08:59:45Z</time>
      </trkpt>
      <trkpt lat="45.89898" lon="3.04809">
        <ele>443</ele>
        <time>2011-11-27T08:59:48Z</time>
      </trkpt>
      <trkpt lat="45.89899" lon="3.0484">
        <ele>439</ele>
        <time>2011-11-27T08:59:56Z</time>
      </trkpt>
      <trkpt lat="45.89897" lon="3.04845">
        <ele>438</ele>
        <time>2011-11-27T09:00:00Z</time>
      </trkpt>
      <trkpt lat="45.89896" lon="3.04847">
        <ele>438</ele>
        <time>2011-11-27T09:00:02Z</time>
      </trkpt>
      <trkpt lat="45.8989" lon="3.0485">
        <ele>438</ele>
        <time>2011-11-27T09:00:06Z</time>
      </trkpt>
      <trkpt lat="45.89883" lon="3.04855">
        <ele>438</ele>
        <time>2011-11-27T09:00:11Z</time>
      </trkpt>
      <trkpt lat="45.89877" lon="3.04858">
        <ele>437</ele>
        <time>2011-11-27T09:00:13Z</time>
      </trkpt>
      <trkpt lat="45.89874" lon="3.04885">
        <ele>437</ele>
        <time>2011-11-27T09:00:20Z</time>
      </trkpt>
      <trkpt lat="45.89877" lon="3.04931">
        <ele>438</ele>
        <time>2011-11-27T09:00:33Z</time>
      </trkpt>
      <trkpt lat="45.89879" lon="3.04943">
        <ele>438</ele>
        <time>2011-11-27T09:00:37Z</time>
      </trkpt>
      <trkpt lat="45.89891" lon="3.04952">
        <ele>439</ele>
        <time>2011-11-27T09:00:43Z</time>
      </trkpt>
      <trkpt lat="45.89923" lon="3.04966">
        <ele>446</ele>
        <time>2011-11-27T09:00:58Z</time>
      </trkpt>
      <trkpt lat="45.89932" lon="3.04973">
        <ele>447</ele>
        <time>2011-11-27T09:01:04Z</time>
      </trkpt>
      <trkpt lat="45.89933" lon="3.04978">
        <ele>447</ele>
        <time>2011-11-27T09:01:06Z</time>
      </trkpt>
      <trkpt lat="45.89921" lon="3.05016">
        <ele>449</ele>
        <time>2011-11-27T09:01:22Z</time>
      </trkpt>
      <trkpt lat="45.8992" lon="3.05024">
        <ele>450</ele>
        <time>2011-11-27T09:01:25Z</time>
      </trkpt>
      <trkpt lat="45.89916" lon="3.05037">
        <ele>444</ele>
        <time>2011-11-27T09:01:31Z</time>
      </trkpt>
      <trkpt lat="45.89896" lon="3.05069">
        <ele>445</ele>
        <time>2011-11-27T09:01:46Z</time>
      </trkpt>
      <trkpt lat="45.89895" lon="3.05105">
        <ele>448</ele>
        <time>2011-11-27T09:02:00Z</time>
      </trkpt>
      <trkpt lat="45.89903" lon="3.0515">
        <ele>451</ele>
        <time>2011-11-27T09:02:16Z</time>
      </trkpt>
      <trkpt lat="45.89912" lon="3.05198">
        <ele>452</ele>
        <time>2011-11-27T09:02:33Z</time>
      </trkpt>
      <trkpt lat="45.89913" lon="3.05266">
        <ele>455</ele>
        <time>2011-11-27T09:02:49Z</time>
      </trkpt>
      <trkpt lat="45.8989" lon="3.0535">
        <ele>453</ele>
        <time>2011-11-27T09:03:06Z</time>
      </trkpt>
      <trkpt lat="45.89889" lon="3.05356">
        <ele>452</ele>
        <time>2011-11-27T09:03:07Z</time>
      </trkpt>
      <trkpt lat="45.89887" lon="3.05381">
        <ele>451</ele>
        <time>2011-11-27T09:03:11Z</time>
      </trkpt>
      <trkpt lat="45.89912" lon="3.05437">
        <ele>450</ele>
        <time>2011-11-27T09:03:24Z</time>
      </trkpt>
      <trkpt lat="45.89973" lon="3.05422">
        <ele>456</ele>
        <time>2011-11-27T09:03:39Z</time>
      </trkpt>
      <trkpt lat="45.90009" lon="3.0543">
        <ele>460</ele>
        <time>2011-11-27T09:03:49Z</time>
      </trkpt>
      <trkpt lat="45.90018" lon="3.05451">
        <ele>461</ele>
        <time>2011-11-27T09:03:53Z</time>
      </trkpt>
      <trkpt lat="45.90028" lon="3.05562">
        <ele>464</ele>
        <time>2011-11-27T09:04:12Z</time>
      </trkpt>
      <trkpt lat="45.90035" lon="3.05637">
        <ele>471</ele>
        <time>2011-11-27T09:04:29Z</time>
      </trkpt>
      <trkpt lat="45.90025" lon="3.05697">
        <ele>473</ele>
        <time>2011-11-27T09:04:42Z</time>
      </trkpt>
      <trkpt lat="45.90025" lon="3.05757">
        <ele>473</ele>
        <time>2011-11-27T09:04:57Z</time>
      </trkpt>
      <trkpt lat="45.90036" lon="3.05807">
        <ele>473</ele>
        <time>2011-11-27T09:05:12Z</time>
      </trkpt>
      <trkpt lat="45.9007" lon="3.05834">
        <ele>474</ele>
        <time>2011-11-27T09:05:29Z</time>
      </trkpt>
      <trkpt lat="45.9009" lon="3.05839">
        <ele>476</ele>
        <time>2011-11-27T09:05:40Z</time>
      </trkpt>
      <trkpt lat="45.90095" lon="3.05841">
        <ele>476</ele>
        <time>2011-11-27T09:05:45Z</time>
      </trkpt>
      <trkpt lat="45.90096" lon="3.05839">
        <ele>476</ele>
        <time>2011-11-27T09:05:47Z</time>
      </trkpt>
      <trkpt lat="45.90091" lon="3.0584">
        <ele>476</ele>
        <time>2011-11-27T09:05:57Z</time>
      </trkpt>
      <trkpt lat="45.901" lon="3.05832">
        <ele>476</ele>
        <time>2011-11-27T09:06:05Z</time>
      </trkpt>
      <trkpt lat="45.90104" lon="3.05827">
        <ele>476</ele>
        <time>2011-11-27T09:06:07Z</time>
      </trkpt>
      <trkpt lat="45.9012" lon="3.05815">
        <ele>476</ele>
        <time>2011-11-27T09:06:11Z</time>
      </trkpt>
      <trkpt lat="45.9014" lon="3.05815">
        <ele>476</ele>
        <time>2011-11-27T09:06:15Z</time>
      </trkpt>
      <trkpt lat="45.90185" lon="3.05833">
        <ele>474</ele>
        <time>2011-11-27T09:06:22Z</time>
      </trkpt>
      <trkpt lat="45.90212" lon="3.0583">
        <ele>474</ele>
        <time>2011-11-27T09:06:26Z</time>
      </trkpt>
      <trkpt lat="45.90322" lon="3.05802">
        <ele>470</ele>
        <time>2011-11-27T09:06:42Z</time>
      </trkpt>
      <trkpt lat="45.90418" lon="3.05817">
        <ele>462</ele>
        <time>2011-11-27T09:06:52Z</time>
      </trkpt>
      <trkpt lat="45.90507" lon="3.0587">
        <ele>453</ele>
        <time>2011-11-27T09:07:02Z</time>
      </trkpt>
      <trkpt lat="45.90511" lon="3.05872">
        <ele>453</ele>
        <time>2011-11-27T09:07:03Z</time>
      </trkpt>
      <trkpt lat="45.90513" lon="3.05872">
        <ele>453</ele>
        <time>2011-11-27T09:07:13Z</time>
      </trkpt>
      <trkpt lat="45.90513" lon="3.05865">
        <ele>453</ele>
        <time>2011-11-27T09:07:27Z</time>
      </trkpt>
      <trkpt lat="45.90513" lon="3.05861">
        <ele>453</ele>
        <time>2011-11-27T09:07:30Z</time>
      </trkpt>
      <trkpt lat="45.9051" lon="3.05859">
        <ele>453</ele>
        <time>2011-11-27T09:07:47Z</time>
      </trkpt>
      <trkpt lat="45.90508" lon="3.05859">
        <ele>453</ele>
        <time>2011-11-27T09:09:12Z</time>
      </trkpt>
    </trkseg>
  </trk>
</gpx>